Observation data for Estelline on 08/14/2020      Previous  Date       Current Mesonet Observations  Soil Data  Daily Summary Page  Observations in Plain Language
KES1 140500Z 30006KT 31/17 A2987 RMK A01 T03050171  RH  045%=      5-min Rain = 0
KES1 140501Z 30006KT 31/17 A2987 RMK A01 T03050172  RH  045%=      5-min Rain = 0
KES1 140502Z 30005KT 31/17 A2987 RMK A01 T03060172  RH  045%=      5-min Rain = 0
KES1 140503Z 30006KT 31/17 A2987 RMK A01 T03050172  RH  045%=      5-min Rain = 0
KES1 140504Z 30006KT 31/17 A2987 RMK A01 T03050172  RH  045%=      5-min Rain = 0
KES1 140505Z 31006KT 31/17 A2987 RMK A01 T03050171  RH  045%=      5-min Rain = 0
KES1 140506Z 31006KT 30/17 A2987 RMK A01 T03040172  RH  045%=      5-min Rain = 0
KES1 140507Z 31006KT 30/17 A2987 RMK A01 T03040172  RH  045%=      5-min Rain = 0
KES1 140508Z 31007KT 30/17 A2987 RMK A01 T03040173  RH  046%=      5-min Rain = 0
KES1 140509Z 31006KT 30/17 A2987 RMK A01 T03040173  RH  045%=      5-min Rain = 0
KES1 140510Z 30006KT 30/17 A2987 RMK A01 T03030173  RH  045%=      5-min Rain = 0
KES1 140511Z 30006KT 30/17 A2987 RMK A01 T03020173  RH  046%=      5-min Rain = 0
KES1 140512Z 30006KT 30/17 A2987 RMK A01 T03020173  RH  046%=      5-min Rain = 0
KES1 140513Z 31006KT 30/17 A2987 RMK A01 T03010173  RH  046%=      5-min Rain = 0
KES1 140514Z 30006KT 30/17 A2987 RMK A01 T03000173  RH  046%=      5-min Rain = 0
KES1 140515Z 31006KT 30/17 A2987 RMK A01 T03000174  RH  047%=      5-min Rain = 0
KES1 140516Z 32005KT 30/17 A2987 RMK A01 T03000174  RH  047%=      5-min Rain = 0
KES1 140517Z 32004KT 30/18 A2987 RMK A01 T02990175  RH  047%=      5-min Rain = 0
KES1 140518Z 35003KT 30/18 A2987 RMK A01 T02990175  RH  047%=      5-min Rain = 0
KES1 140519Z 01004KT 30/18 A2987 RMK A01 T02990176  RH  048%=      5-min Rain = 0
KES1 140520Z 03002KT 30/18 A2987 RMK A01 T02980175  RH  047%=      5-min Rain = 0
KES1 140521Z 04003KT 30/17 A2987 RMK A01 T02970174  RH  048%=      5-min Rain = 0
KES1 140522Z 04003KT 30/18 A2987 RMK A01 T02950175  RH  048%=      5-min Rain = 0
KES1 140523Z 03003KT 30/18 A2987 RMK A01 T02950176  RH  049%=      5-min Rain = 0
KES1 140524Z 01004KT 29/18 A2987 RMK A01 T02940176  RH  049%=      5-min Rain = 0
KES1 140525Z 35004KT 29/18 A2987 RMK A01 T02940177  RH  049%=      5-min Rain = 0
KES1 140526Z 35004KT 29/18 A2987 RMK A01 T02940178  RH  050%=      5-min Rain = 0
KES1 140527Z 34004KT 30/18 A2986 RMK A01 T02950179  RH  050%=      5-min Rain = 0
KES1 140528Z 33004KT 30/18 A2986 RMK A01 T02950179  RH  050%=      5-min Rain = 0
KES1 140529Z 33004KT 30/18 A2986 RMK A01 T02950178  RH  049%=      5-min Rain = 0
KES1 140530Z 33004KT 30/18 A2986 RMK A01 T02950178  RH  049%=      5-min Rain = 0
KES1 140531Z 34004KT 30/18 A2987 RMK A01 T02950179  RH  050%=      5-min Rain = 0
KES1 140532Z 34003KT 29/18 A2987 RMK A01 T02940179  RH  050%=      5-min Rain = 0
KES1 140533Z 34003KT 29/18 A2987 RMK A01 T02940178  RH  050%=      5-min Rain = 0
KES1 140534Z 33003KT 29/18 A2987 RMK A01 T02930177  RH  050%=      5-min Rain = 0
KES1 140535Z 32004KT 29/18 A2987 RMK A01 T02920177  RH  050%=      5-min Rain = 0
KES1 140536Z 32004KT 29/18 A2986 RMK A01 T02920177  RH  050%=      5-min Rain = 0
KES1 140537Z 32004KT 29/18 A2986 RMK A01 T02910178  RH  051%=      5-min Rain = 0
KES1 140538Z 32003KT 29/18 A2986 RMK A01 T02900178  RH  051%=      5-min Rain = 0
KES1 140539Z 33002KT 29/18 A2987 RMK A01 T02900178  RH  051%=      5-min Rain = 0
KES1 140540Z 34002KT 29/18 A2987 RMK A01 T02890177  RH  051%=      5-min Rain = 0
KES1 140541Z 35001KT 29/18 A2987 RMK A01 T02880177  RH  051%=      5-min Rain = 0
KES1 140542Z 00000KT 29/18 A2987 RMK A01 T02860176  RH  051%=      5-min Rain = 0
KES1 140543Z 14001KT 29/18 A2987 RMK A01 T02850178  RH  052%=      5-min Rain = 0
KES1 140544Z 15001KT 28/18 A2987 RMK A01 T02840178  RH  053%=      5-min Rain = 0
KES1 140545Z 18001KT 28/18 A2987 RMK A01 T02840179  RH  053%=      5-min Rain = 0
KES1 140546Z 21001KT 28/18 A2987 RMK A01 T02840179  RH  053%=      5-min Rain = 0
KES1 140547Z 22002KT 28/18 A2987 RMK A01 T02840179  RH  053%=      5-min Rain = 0
KES1 140548Z 23003KT 29/18 A2988 RMK A01 T02850178  RH  052%=      5-min Rain = 0
KES1 140549Z 23003KT 28/18 A2988 RMK A01 T02840178  RH  053%=      5-min Rain = 0
KES1 140550Z 23004KT 28/18 A2988 RMK A01 T02830179  RH  053%=      5-min Rain = 0
KES1 140551Z 22005KT 28/18 A2988 RMK A01 T02820179  RH  053%=      5-min Rain = 0
KES1 140552Z 21005KT 28/18 A2988 RMK A01 T02810179  RH  054%=      5-min Rain = 0
KES1 140553Z 21005KT 28/18 A2988 RMK A01 T02810180  RH  054%=      5-min Rain = 0
KES1 140554Z 21004KT 28/18 A2988 RMK A01 T02810180  RH  054%=      5-min Rain = 0
KES1 140555Z 22004KT 28/18 A2988 RMK A01 T02810179  RH  054%=      5-min Rain = 0
KES1 140556Z 22004KT 28/18 A2988 RMK A01 T02820180  RH  054%=      5-min Rain = 0
KES1 140557Z 23004KT 28/18 A2988 RMK A01 T02820179  RH  054%=      5-min Rain = 0
KES1 140558Z 24004KT 28/18 A2988 RMK A01 T02820180  RH  054%=      5-min Rain = 0
KES1 140559Z 25004KT 28/18 A2988 RMK A01 T02810179  RH  054%=      5-min Rain = 0
KES1 140600Z 25004KT 28/18 A2988 RMK A01 T02800179  RH  054%=      5-min Rain = 0
KES1 140601Z 26005KT 28/18 A2988 RMK A01 T02800179  RH  054%=      5-min Rain = 0
KES1 140602Z 26004KT 28/18 A2988 RMK A01 T02790180  RH  055%=      5-min Rain = 0
KES1 140603Z 26004KT 28/18 A2988 RMK A01 T02780180  RH  055%=      5-min Rain = 0
KES1 140604Z 26003KT 28/18 A2988 RMK A01 T02780180  RH  055%=      5-min Rain = 0
KES1 140605Z 25003KT 28/18 A2988 RMK A01 T02770180  RH  056%=      5-min Rain = 0
KES1 140606Z 24002KT 28/18 A2988 RMK A01 T02770181  RH  056%=      5-min Rain = 0
KES1 140607Z 24001KT 28/18 A2988 RMK A01 T02760181  RH  056%=      5-min Rain = 0
KES1 140608Z 25002KT 28/18 A2988 RMK A01 T02760183  RH  057%=      5-min Rain = 0
KES1 140609Z 24002KT 28/19 A2988 RMK A01 T02760185  RH  057%=      5-min Rain = 0
KES1 140610Z 25003KT 28/19 A2987 RMK A01 T02770186  RH  058%=      5-min Rain = 0
KES1 140611Z 26003KT 28/19 A2987 RMK A01 T02780186  RH  057%=      5-min Rain = 0
KES1 140612Z 26003KT 28/19 A2987 RMK A01 T02780187  RH  057%=      5-min Rain = 0
KES1 140613Z 27004KT 28/19 A2987 RMK A01 T02790186  RH  057%=      5-min Rain = 0
KES1 140614Z 27004KT 28/19 A2987 RMK A01 T02790187  RH  057%=      5-min Rain = 0
KES1 140615Z 27004KT 28/19 A2987 RMK A01 T02790187  RH  057%=      5-min Rain = 0
KES1 140616Z 27004KT 28/19 A2987 RMK A01 T02790187  RH  058%=      5-min Rain = 0
KES1 140617Z 27004KT 28/19 A2987 RMK A01 T02790188  RH  058%=      5-min Rain = 0
KES1 140618Z 26004KT 28/19 A2987 RMK A01 T02780188  RH  058%=      5-min Rain = 0
KES1 140619Z 27004KT 28/19 A2987 RMK A01 T02780188  RH  058%=      5-min Rain = 0
KES1 140620Z 27004KT 28/19 A2987 RMK A01 T02780189  RH  059%=      5-min Rain = 0
KES1 140621Z 27004KT 28/19 A2987 RMK A01 T02780189  RH  059%=      5-min Rain = 0
KES1 140622Z 28004KT 28/19 A2987 RMK A01 T02770189  RH  059%=      5-min Rain = 0
KES1 140623Z 28005KT 28/19 A2987 RMK A01 T02770189  RH  059%=      5-min Rain = 0
KES1 140624Z 28005KT 28/19 A2987 RMK A01 T02770190  RH  059%=      5-min Rain = 0
KES1 140625Z 27004KT 28/19 A2987 RMK A01 T02760191  RH  060%=      5-min Rain = 0
KES1 140626Z 27004KT 28/19 A2987 RMK A01 T02770191  RH  059%=      5-min Rain = 0
KES1 140627Z 25003KT 28/19 A2987 RMK A01 T02760190  RH  059%=      5-min Rain = 0
KES1 140628Z 24002KT 28/19 A2987 RMK A01 T02750190  RH  060%=      5-min Rain = 0
KES1 140629Z 24002KT 28/19 A2987 RMK A01 T02750191  RH  060%=      5-min Rain = 0
KES1 140630Z 24003KT 28/19 A2987 RMK A01 T02750193  RH  061%=      5-min Rain = 0
KES1 140631Z 24003KT 28/19 A2987 RMK A01 T02750192  RH  061%=      5-min Rain = 0
KES1 140632Z 25004KT 28/19 A2987 RMK A01 T02750192  RH  061%=      5-min Rain = 0
KES1 140633Z 26005KT 28/19 A2987 RMK A01 T02750192  RH  061%=      5-min Rain = 0
KES1 140634Z 27005KT 28/19 A2987 RMK A01 T02750192  RH  061%=      5-min Rain = 0
KES1 140635Z 27005KT 28/19 A2987 RMK A01 T02750193  RH  061%=      5-min Rain = 0
KES1 140636Z 27005KT 27/19 A2987 RMK A01 T02740193  RH  061%=      5-min Rain = 0
KES1 140637Z 27006KT 27/19 A2987 RMK A01 T02740193  RH  061%=      5-min Rain = 0
KES1 140638Z 26005KT 27/19 A2987 RMK A01 T02740192  RH  061%=      5-min Rain = 0
KES1 140639Z 26005KT 27/19 A2987 RMK A01 T02730191  RH  061%=      5-min Rain = 0
KES1 140640Z 26004KT 27/19 A2987 RMK A01 T02720191  RH  061%=      5-min Rain = 0
KES1 140641Z 25004KT 27/19 A2987 RMK A01 T02710191  RH  062%=      5-min Rain = 0
KES1 140642Z 26004KT 27/19 A2987 RMK A01 T02710192  RH  062%=      5-min Rain = 0
KES1 140643Z 25004KT 27/19 A2987 RMK A01 T02700192  RH  062%=      5-min Rain = 0
KES1 140644Z 25004KT 27/19 A2987 RMK A01 T02700192  RH  062%=      5-min Rain = 0
KES1 140645Z 25004KT 27/19 A2987 RMK A01 T02700193  RH  063%=      5-min Rain = 0
KES1 140646Z 25005KT 27/19 A2987 RMK A01 T02690192  RH  063%=      5-min Rain = 0
KES1 140647Z 26005KT 27/19 A2987 RMK A01 T02690192  RH  063%=      5-min Rain = 0
KES1 140648Z 27005KT 27/19 A2987 RMK A01 T02690192  RH  063%=      5-min Rain = 0
KES1 140649Z 26005KT 27/19 A2986 RMK A01 T02690194  RH  064%=      5-min Rain = 0
KES1 140650Z 26005KT 27/19 A2986 RMK A01 T02690194  RH  064%=      5-min Rain = 0
KES1 140651Z 26005KT 27/19 A2986 RMK A01 T02690194  RH  064%=      5-min Rain = 0
KES1 140652Z 26005KT 27/20 A2986 RMK A01 T02690195  RH  064%=      5-min Rain = 0
KES1 140653Z 27006KT 27/20 A2986 RMK A01 T02690196  RH  064%=      5-min Rain = 0
KES1 140654Z 27005KT 27/20 A2986 RMK A01 T02690196  RH  064%=      5-min Rain = 0
KES1 140655Z 27005KT 27/20 A2986 RMK A01 T02690195  RH  064%=      5-min Rain = 0
KES1 140656Z 27005KT 27/20 A2986 RMK A01 T02690196  RH  064%=      5-min Rain = 0
KES1 140657Z 27005KT 27/20 A2986 RMK A01 T02690196  RH  064%=      5-min Rain = 0
KES1 140658Z 26005KT 27/20 A2986 RMK A01 T02690196  RH  064%=      5-min Rain = 0
KES1 140659Z 26005KT 27/20 A2986 RMK A01 T02680196  RH  064%=      5-min Rain = 0
KES1 140700Z 26005KT 27/20 A2986 RMK A01 T02680196  RH  065%=      5-min Rain = 0
KES1 140701Z 26005KT 27/20 A2986 RMK A01 T02680196  RH  065%=      5-min Rain = 0
KES1 140702Z 26005KT 27/20 A2986 RMK A01 T02670196  RH  065%=      5-min Rain = 0
KES1 140703Z 27005KT 27/20 A2986 RMK A01 T02670196  RH  065%=      5-min Rain = 0
KES1 140704Z 27005KT 27/20 A2986 RMK A01 T02670197  RH  065%=      5-min Rain = 0
KES1 140705Z 27005KT 27/20 A2986 RMK A01 T02670197  RH  065%=      5-min Rain = 0
KES1 140706Z 27005KT 27/20 A2986 RMK A01 T02670198  RH  066%=      5-min Rain = 0
KES1 140707Z 26005KT 27/20 A2986 RMK A01 T02680198  RH  066%=      5-min Rain = 0
KES1 140708Z 26004KT 27/20 A2986 RMK A01 T02680198  RH  066%=      5-min Rain = 0
KES1 140709Z 26004KT 27/20 A2986 RMK A01 T02680198  RH  066%=      5-min Rain = 0
KES1 140710Z 25004KT 27/20 A2986 RMK A01 T02680199  RH  066%=      5-min Rain = 0
KES1 140711Z 25003KT 27/20 A2986 RMK A01 T02680199  RH  066%=      5-min Rain = 0
KES1 140712Z 24003KT 27/20 A2986 RMK A01 T02680199  RH  066%=      5-min Rain = 0
KES1 140713Z 24003KT 27/20 A2986 RMK A01 T02680200  RH  066%=      5-min Rain = 0
KES1 140714Z 24003KT 27/20 A2987 RMK A01 T02680200  RH  066%=      5-min Rain = 0
KES1 140715Z 24003KT 27/20 A2987 RMK A01 T02680200  RH  067%=      5-min Rain = 0
KES1 140716Z 25003KT 27/20 A2987 RMK A01 T02680201  RH  066%=      5-min Rain = 0
KES1 140717Z 25003KT 27/20 A2987 RMK A01 T02680201  RH  067%=      5-min Rain = 0
KES1 140718Z 26003KT 27/20 A2987 RMK A01 T02690201  RH  067%=      5-min Rain = 0
KES1 140719Z 26003KT 27/20 A2987 RMK A01 T02690202  RH  067%=      5-min Rain = 0
KES1 140720Z 26003KT 27/20 A2987 RMK A01 T02700202  RH  067%=      5-min Rain = 0
KES1 140721Z 25003KT 27/20 A2987 RMK A01 T02700202  RH  066%=      5-min Rain = 0
KES1 140722Z 25003KT 27/20 A2987 RMK A01 T02700202  RH  066%=      5-min Rain = 0
KES1 140723Z 24003KT 27/20 A2987 RMK A01 T02700202  RH  067%=      5-min Rain = 0
KES1 140724Z 25003KT 27/20 A2987 RMK A01 T02700203  RH  067%=      5-min Rain = 0
KES1 140725Z 25004KT 27/20 A2987 RMK A01 T02700203  RH  067%=      5-min Rain = 0
KES1 140726Z 25004KT 27/20 A2987 RMK A01 T02700203  RH  067%=      5-min Rain = 0
KES1 140727Z 27005KT 27/20 A2987 RMK A01 T02700204  RH  067%=      5-min Rain = 0
KES1 140728Z 27004KT 27/21 A2987 RMK A01 T02700205  RH  067%=      5-min Rain = 0
KES1 140729Z 27005KT 27/20 A2987 RMK A01 T02700204  RH  067%=      5-min Rain = 0
KES1 140730Z 28005KT 27/21 A2987 RMK A01 T02710205  RH  067%=      5-min Rain = 0
KES1 140731Z 28006KT 27/21 A2987 RMK A01 T02720206  RH  067%=      5-min Rain = 0
KES1 140732Z 28006KT 27/21 A2987 RMK A01 T02720206  RH  067%=      5-min Rain = 0
KES1 140733Z 28006KT 27/21 A2987 RMK A01 T02720207  RH  067%=      5-min Rain = 0
KES1 140734Z 28006KT 27/21 A2987 RMK A01 T02720207  RH  068%=      5-min Rain = 0
KES1 140735Z 28006KT 27/21 A2987 RMK A01 T02730208  RH  068%=      5-min Rain = 0
KES1 140736Z 27006KT 27/21 A2987 RMK A01 T02730207  RH  067%=      5-min Rain = 0
KES1 140737Z 27005KT 27/21 A2987 RMK A01 T02730207  RH  067%=      5-min Rain = 0
KES1 140738Z 27006KT 27/21 A2987 RMK A01 T02730207  RH  067%=      5-min Rain = 0
KES1 140739Z 26005KT 27/21 A2987 RMK A01 T02720207  RH  068%=      5-min Rain = 0
KES1 140740Z 27005KT 27/21 A2987 RMK A01 T02720207  RH  068%=      5-min Rain = 0
KES1 140741Z 28006KT 27/21 A2987 RMK A01 T02710207  RH  068%=      5-min Rain = 0
KES1 140742Z 28005KT 27/21 A2987 RMK A01 T02710207  RH  068%=      5-min Rain = 0
KES1 140743Z 28006KT 27/21 A2987 RMK A01 T02710208  RH  068%=      5-min Rain = 0
KES1 140744Z 28005KT 27/21 A2987 RMK A01 T02710208  RH  068%=      5-min Rain = 0
KES1 140745Z 28006KT 27/21 A2987 RMK A01 T02710208  RH  068%=      5-min Rain = 0
KES1 140746Z 28005KT 27/21 A2987 RMK A01 T02710208  RH  068%=      5-min Rain = 0
KES1 140747Z 28006KT 27/21 A2987 RMK A01 T02710208  RH  068%=      5-min Rain = 0
KES1 140748Z 28005KT 27/21 A2987 RMK A01 T02710208  RH  068%=      5-min Rain = 0
KES1 140749Z 28005KT 27/21 A2987 RMK A01 T02710208  RH  068%=      5-min Rain = 0
KES1 140750Z 27005KT 27/21 A2987 RMK A01 T02700207  RH  068%=      5-min Rain = 0
KES1 140751Z 27005KT 27/21 A2987 RMK A01 T02690207  RH  068%=      5-min Rain = 0
KES1 140752Z 28005KT 27/21 A2987 RMK A01 T02690207  RH  069%=      5-min Rain = 0
KES1 140753Z 29005KT 27/21 A2987 RMK A01 T02680207  RH  069%=      5-min Rain = 0
KES1 140754Z 28006KT 27/21 A2987 RMK A01 T02670207  RH  070%=      5-min Rain = 0
KES1 140755Z 29006KT 27/21 A2987 RMK A01 T02670208  RH  070%=      5-min Rain = 0
KES1 140756Z 29006KT 27/21 A2987 RMK A01 T02670208  RH  070%=      5-min Rain = 0
KES1 140757Z 29006KT 27/21 A2987 RMK A01 T02680208  RH  070%=      5-min Rain = 0
KES1 140758Z 29005KT 27/21 A2987 RMK A01 T02680208  RH  070%=      5-min Rain = 0
KES1 140759Z 29005KT 27/21 A2987 RMK A01 T02680209  RH  070%=      5-min Rain = 0
KES1 140800Z 29005KT 27/21 A2987 RMK A01 T02680209  RH  070%=      5-min Rain = 0
KES1 140801Z 30005KT 27/21 A2987 RMK A01 T02680210  RH  070%=      5-min Rain = 0
KES1 140802Z 30005KT 27/21 A2987 RMK A01 T02680209  RH  070%=      5-min Rain = 0
KES1 140803Z 30006KT 27/21 A2987 RMK A01 T02680209  RH  070%=      5-min Rain = 0
KES1 140804Z 30005KT 27/21 A2987 RMK A01 T02680210  RH  070%=      5-min Rain = 0
KES1 140805Z 30005KT 27/21 A2987 RMK A01 T02680210  RH  070%=      5-min Rain = 0
KES1 140806Z 29006KT 27/21 A2987 RMK A01 T02680210  RH  070%=      5-min Rain = 0
KES1 140807Z 29006KT 27/21 A2987 RMK A01 T02690211  RH  071%=      5-min Rain = 0
KES1 140808Z 29006KT 27/21 A2987 RMK A01 T02690210  RH  070%=      5-min Rain = 0
KES1 140809Z 29006KT 27/21 A2987 RMK A01 T02690211  RH  070%=      5-min Rain = 0
KES1 140810Z 29006KT 27/21 A2987 RMK A01 T02690212  RH  071%=      5-min Rain = 0
KES1 140811Z 29006KT 27/21 A2987 RMK A01 T02690211  RH  071%=      5-min Rain = 0
KES1 140812Z 30006KT 27/21 A2987 RMK A01 T02700212  RH  071%=      5-min Rain = 0
KES1 140813Z 30007KT 27/21 A2987 RMK A01 T02700212  RH  071%=      5-min Rain = 0
KES1 140814Z 30007KT 27/21 A2987 RMK A01 T02700212  RH  071%=      5-min Rain = 0
KES1 140815Z 30007KT 27/21 A2987 RMK A01 T02710212  RH  070%=      5-min Rain = 0
KES1 140816Z 30007KT 27/21 A2988 RMK A01 T02710213  RH  071%=      5-min Rain = 0
KES1 140817Z 31007KT 27/21 A2988 RMK A01 T02710213  RH  070%=      5-min Rain = 0
KES1 140818Z 31007KT 27/21 A2988 RMK A01 T02720213  RH  070%=      5-min Rain = 0
KES1 140819Z 30006KT 27/21 A2988 RMK A01 T02710213  RH  070%=      5-min Rain = 0
KES1 140820Z 29006KT 27/21 A2988 RMK A01 T02710213  RH  070%=      5-min Rain = 0
KES1 140821Z 29005KT 27/21 A2988 RMK A01 T02710213  RH  070%=      5-min Rain = 0
KES1 140822Z 29005KT 27/21 A2988 RMK A01 T02710213  RH  070%=      5-min Rain = 0
KES1 140823Z 28005KT 27/21 A2988 RMK A01 T02710213  RH  071%=      5-min Rain = 0
KES1 140824Z 27004KT 27/21 A2988 RMK A01 T02700213  RH  071%=      5-min Rain = 0
KES1 140825Z 25004KT 27/21 A2988 RMK A01 T02700213  RH  071%=      5-min Rain = 0
KES1 140826Z 24004KT 27/21 A2988 RMK A01 T02690213  RH  071%=      5-min Rain = 0
KES1 140827Z 24005KT 27/21 A2988 RMK A01 T02680212  RH  071%=      5-min Rain = 0
KES1 140828Z 24004KT 27/21 A2988 RMK A01 T02680213  RH  072%=      5-min Rain = 0
KES1 140829Z 25004KT 27/21 A2988 RMK A01 T02680213  RH  072%=      5-min Rain = 0
KES1 140830Z 24005KT 27/21 A2988 RMK A01 T02680213  RH  072%=      5-min Rain = 0
KES1 140831Z 24006KT 27/21 A2988 RMK A01 T02680213  RH  072%=      5-min Rain = 0
KES1 140832Z 25006KT 27/21 A2988 RMK A01 T02680212  RH  071%=      5-min Rain = 0
KES1 140833Z 26005KT 27/21 A2988 RMK A01 T02680212  RH  071%=      5-min Rain = 0
KES1 140834Z 28004KT 27/21 A2988 RMK A01 T02680211  RH  071%=      5-min Rain = 0
KES1 140835Z 29005KT 27/21 A2988 RMK A01 T02670211  RH  071%=      5-min Rain = 0
KES1 140836Z 28005KT 27/21 A2988 RMK A01 T02670211  RH  071%=      5-min Rain = 0
KES1 140837Z 28005KT 27/21 A2988 RMK A01 T02670211  RH  071%=      5-min Rain = 0
KES1 140838Z 28006KT 27/21 A2988 RMK A01 T02670211  RH  071%=      5-min Rain = 0
KES1 140839Z 28005KT 27/21 A2988 RMK A01 T02670210  RH  071%=      5-min Rain = 0
KES1 140840Z 28005KT 27/21 A2988 RMK A01 T02670210  RH  071%=      5-min Rain = 0
KES1 140841Z 29004KT 27/21 A2988 RMK A01 T02660210  RH  071%=      5-min Rain = 0
KES1 140842Z 29005KT 27/21 A2988 RMK A01 T02650210  RH  071%=      5-min Rain = 0
KES1 140843Z 29004KT 27/21 A2988 RMK A01 T02650210  RH  072%=      5-min Rain = 0
KES1 140844Z 29004KT 27/21 A2988 RMK A01 T02650210  RH  072%=      5-min Rain = 0
KES1 140845Z 29005KT 27/21 A2988 RMK A01 T02650210  RH  072%=      5-min Rain = 0
KES1 140846Z 28005KT 27/21 A2988 RMK A01 T02650210  RH  072%=      5-min Rain = 0
KES1 140847Z 28005KT 27/21 A2988 RMK A01 T02650209  RH  072%=      5-min Rain = 0
KES1 140848Z 28005KT 26/21 A2988 RMK A01 T02640209  RH  072%=      5-min Rain = 0
KES1 140849Z 28004KT 26/21 A2988 RMK A01 T02630208  RH  072%=      5-min Rain = 0
KES1 140850Z 29003KT 26/21 A2988 RMK A01 T02630208  RH  072%=      5-min Rain = 0
KES1 140851Z 28004KT 26/21 A2988 RMK A01 T02630208  RH  072%=      5-min Rain = 0
KES1 140852Z 28004KT 26/21 A2988 RMK A01 T02630208  RH  071%=      5-min Rain = 0
KES1 140853Z 28004KT 26/21 A2988 RMK A01 T02630207  RH  071%=      5-min Rain = 0
KES1 140854Z 28004KT 26/21 A2988 RMK A01 T02630206  RH  071%=      5-min Rain = 0
KES1 140855Z 28004KT 26/21 A2988 RMK A01 T02620205  RH  071%=      5-min Rain = 0
KES1 140856Z 28004KT 26/21 A2988 RMK A01 T02620205  RH  071%=      5-min Rain = 0
KES1 140857Z 28004KT 26/20 A2988 RMK A01 T02610204  RH  071%=      5-min Rain = 0
KES1 140858Z 28004KT 26/20 A2988 RMK A01 T02610204  RH  071%=      5-min Rain = 0
KES1 140859Z 28004KT 26/20 A2988 RMK A01 T02610204  RH  070%=      5-min Rain = 0
KES1 140900Z 28004KT 26/20 A2988 RMK A01 T02610203  RH  070%=      5-min Rain = 0
KES1 140901Z 27004KT 26/20 A2987 RMK A01 T02610203  RH  070%=      5-min Rain = 0
KES1 140902Z 28004KT 26/20 A2987 RMK A01 T02620203  RH  070%=      5-min Rain = 0
KES1 140903Z 29004KT 26/20 A2987 RMK A01 T02610202  RH  070%=      5-min Rain = 0
KES1 140904Z 28004KT 26/20 A2987 RMK A01 T02620202  RH  070%=      5-min Rain = 0
KES1 140905Z 28004KT 26/20 A2987 RMK A01 T02620201  RH  069%=      5-min Rain = 0
KES1 140906Z 29004KT 26/20 A2987 RMK A01 T02620202  RH  069%=      5-min Rain = 0
KES1 140907Z 28004KT 26/20 A2987 RMK A01 T02620201  RH  069%=      5-min Rain = 0
KES1 140908Z 28004KT 26/20 A2987 RMK A01 T02620201  RH  069%=      5-min Rain = 0
KES1 140909Z 28004KT 26/20 A2987 RMK A01 T02610201  RH  069%=      5-min Rain = 0
KES1 140910Z 29004KT 26/20 A2987 RMK A01 T02610200  RH  069%=      5-min Rain = 0
KES1 140911Z 29004KT 26/20 A2987 RMK A01 T02610200  RH  069%=      5-min Rain = 0
KES1 140912Z 29004KT 26/20 A2987 RMK A01 T02600200  RH  069%=      5-min Rain = 0
KES1 140913Z 29004KT 26/20 A2987 RMK A01 T02600200  RH  069%=      5-min Rain = 0
KES1 140914Z 29004KT 26/20 A2987 RMK A01 T02600200  RH  069%=      5-min Rain = 0
KES1 140915Z 31004KT 26/20 A2987 RMK A01 T02600200  RH  069%=      5-min Rain = 0
KES1 140916Z 32004KT 26/20 A2987 RMK A01 T02600199  RH  069%=      5-min Rain = 0
KES1 140917Z 29005KT 26/20 A2987 RMK A01 T02590199  RH  069%=      5-min Rain = 0
KES1 140918Z 28003KT 26/20 A2987 RMK A01 T02600199  RH  069%=      5-min Rain = 0
KES1 140919Z 29003KT 26/20 A2987 RMK A01 T02590199  RH  069%=      5-min Rain = 0
KES1 140920Z 30004KT 26/20 A2987 RMK A01 T02580199  RH  070%=      5-min Rain = 0
KES1 140921Z 31005KT 26/20 A2987 RMK A01 T02570199  RH  070%=      5-min Rain = 0
KES1 140922Z 32005KT 26/20 A2987 RMK A01 T02570199  RH  070%=      5-min Rain = 0
KES1 140923Z 32005KT 26/20 A2987 RMK A01 T02570199  RH  070%=      5-min Rain = 0
KES1 140924Z 31004KT 26/20 A2987 RMK A01 T02570198  RH  070%=      5-min Rain = 0
KES1 140925Z 31004KT 26/20 A2987 RMK A01 T02570199  RH  070%=      5-min Rain = 0
KES1 140926Z 31004KT 26/20 A2987 RMK A01 T02570198  RH  070%=      5-min Rain = 0
KES1 140927Z 31004KT 26/20 A2987 RMK A01 T02570198  RH  070%=      5-min Rain = 0
KES1 140928Z 31004KT 26/20 A2987 RMK A01 T02560197  RH  070%=      5-min Rain = 0
KES1 140929Z 32004KT 26/20 A2987 RMK A01 T02560197  RH  070%=      5-min Rain = 0
KES1 140930Z 32004KT 26/20 A2987 RMK A01 T02550197  RH  070%=      5-min Rain = 0
KES1 140931Z 33004KT 26/20 A2987 RMK A01 T02560197  RH  070%=      5-min Rain = 0
KES1 140932Z 32004KT 26/20 A2987 RMK A01 T02550197  RH  070%=      5-min Rain = 0
KES1 140933Z 31003KT 26/20 A2987 RMK A01 T02550197  RH  070%=      5-min Rain = 0
KES1 140934Z 31003KT 25/20 A2987 RMK A01 T02540197  RH  070%=      5-min Rain = 0
KES1 140935Z 31003KT 25/20 A2987 RMK A01 T02540197  RH  070%=      5-min Rain = 0
KES1 140936Z 31003KT 25/20 A2987 RMK A01 T02540197  RH  071%=      5-min Rain = 0
KES1 140937Z 31004KT 25/20 A2987 RMK A01 T02530196  RH  071%=      5-min Rain = 0
KES1 140938Z 30004KT 25/20 A2987 RMK A01 T02530197  RH  071%=      5-min Rain = 0
KES1 140939Z 30005KT 25/20 A2987 RMK A01 T02520197  RH  071%=      5-min Rain = 0
KES1 140940Z 30005KT 25/20 A2987 RMK A01 T02520197  RH  072%=      5-min Rain = 0
KES1 140941Z 29005KT 25/20 A2987 RMK A01 T02520197  RH  072%=      5-min Rain = 0
KES1 140942Z 29005KT 25/20 A2987 RMK A01 T02510197  RH  072%=      5-min Rain = 0
KES1 140943Z 30005KT 25/20 A2987 RMK A01 T02510197  RH  072%=      5-min Rain = 0
KES1 140944Z 29005KT 25/20 A2987 RMK A01 T02500197  RH  072%=      5-min Rain = 0
KES1 140945Z 29005KT 25/20 A2987 RMK A01 T02500197  RH  073%=      5-min Rain = 0
KES1 140946Z 29005KT 25/20 A2987 RMK A01 T02500198  RH  073%=      5-min Rain = 0
KES1 140947Z 29005KT 25/20 A2987 RMK A01 T02490197  RH  073%=      5-min Rain = 0
KES1 140948Z 29005KT 25/20 A2987 RMK A01 T02490198  RH  073%=      5-min Rain = 0
KES1 140949Z 29005KT 25/20 A2987 RMK A01 T02480198  RH  074%=      5-min Rain = 0
KES1 140950Z 29004KT 25/20 A2987 RMK A01 T02480198  RH  074%=      5-min Rain = 0
KES1 140951Z 29004KT 25/20 A2987 RMK A01 T02480198  RH  074%=      5-min Rain = 0
KES1 140952Z 29004KT 25/20 A2987 RMK A01 T02480198  RH  074%=      5-min Rain = 0
KES1 140953Z 29003KT 25/20 A2987 RMK A01 T02480199  RH  074%=      5-min Rain = 0
KES1 140954Z 29003KT 25/20 A2987 RMK A01 T02480199  RH  074%=      5-min Rain = 0
KES1 140955Z 28003KT 25/20 A2987 RMK A01 T02490200  RH  074%=      5-min Rain = 0
KES1 140956Z 28003KT 25/20 A2987 RMK A01 T02490199  RH  074%=      5-min Rain = 0
KES1 140957Z 28002KT 25/20 A2987 RMK A01 T02490199  RH  074%=      5-min Rain = 0
KES1 140958Z 28002KT 25/20 A2987 RMK A01 T02490199  RH  074%=      5-min Rain = 0
KES1 140959Z 27002KT 25/20 A2987 RMK A01 T02490199  RH  074%=      5-min Rain = 0
KES1 141000Z 27002KT 25/20 A2987 RMK A01 T02490200  RH  074%=      5-min Rain = 0
KES1 141001Z 27003KT 25/20 A2987 RMK A01 T02490200  RH  074%=      5-min Rain = 0
KES1 141002Z 27003KT 25/20 A2987 RMK A01 T02490200  RH  074%=      5-min Rain = 0
KES1 141003Z 28003KT 25/20 A2987 RMK A01 T02490200  RH  074%=      5-min Rain = 0
KES1 141004Z 26003KT 25/20 A2987 RMK A01 T02490200  RH  074%=      5-min Rain = 0
KES1 141005Z 27003KT 25/20 A2987 RMK A01 T02490200  RH  074%=      5-min Rain = 0
KES1 141006Z 27003KT 25/20 A2987 RMK A01 T02480199  RH  074%=      5-min Rain = 0
KES1 141007Z 28002KT 25/20 A2987 RMK A01 T02480200  RH  075%=      5-min Rain = 0
KES1 141008Z 29003KT 25/20 A2987 RMK A01 T02470200  RH  075%=      5-min Rain = 0
KES1 141009Z 26003KT 25/20 A2987 RMK A01 T02470200  RH  075%=      5-min Rain = 0
KES1 141010Z 23003KT 25/20 A2987 RMK A01 T02470199  RH  074%=      5-min Rain = 0
KES1 141011Z 23003KT 25/20 A2987 RMK A01 T02470199  RH  074%=      5-min Rain = 0
KES1 141012Z 25004KT 25/20 A2987 RMK A01 T02470198  RH  074%=      5-min Rain = 0
KES1 141013Z 25004KT 25/20 A2987 RMK A01 T02460198  RH  075%=      5-min Rain = 0
KES1 141014Z 26004KT 25/20 A2988 RMK A01 T02450198  RH  075%=      5-min Rain = 0
KES1 141015Z 26004KT 25/20 A2988 RMK A01 T02450199  RH  075%=      5-min Rain = 0
KES1 141016Z 26004KT 25/20 A2988 RMK A01 T02450199  RH  075%=      5-min Rain = 0
KES1 141017Z 26004KT 25/20 A2988 RMK A01 T02450198  RH  075%=      5-min Rain = 0
KES1 141018Z 26004KT 25/20 A2988 RMK A01 T02450197  RH  075%=      5-min Rain = 0
KES1 141019Z 25005KT 25/20 A2988 RMK A01 T02450197  RH  075%=      5-min Rain = 0
KES1 141020Z 25004KT 24/20 A2988 RMK A01 T02440196  RH  075%=      5-min Rain = 0
KES1 141021Z 25004KT 24/20 A2988 RMK A01 T02430196  RH  075%=      5-min Rain = 0
KES1 141022Z 26004KT 24/20 A2988 RMK A01 T02430196  RH  075%=      5-min Rain = 0
KES1 141023Z 26004KT 24/20 A2988 RMK A01 T02430196  RH  075%=      5-min Rain = 0
KES1 141024Z 27003KT 24/20 A2988 RMK A01 T02430196  RH  075%=      5-min Rain = 0
KES1 141025Z 26004KT 24/20 A2988 RMK A01 T02440197  RH  075%=      5-min Rain = 0
KES1 141026Z 26005KT 24/20 A2988 RMK A01 T02440197  RH  075%=      5-min Rain = 0
KES1 141027Z 26003KT 24/20 A2988 RMK A01 T02440197  RH  075%=      5-min Rain = 0
KES1 141028Z 28003KT 25/20 A2988 RMK A01 T02450197  RH  075%=      5-min Rain = 0
KES1 141029Z 28004KT 25/20 A2988 RMK A01 T02450197  RH  075%=      5-min Rain = 0
KES1 141030Z 26003KT 25/20 A2988 RMK A01 T02450197  RH  075%=      5-min Rain = 0
KES1 141031Z 26003KT 25/20 A2988 RMK A01 T02450197  RH  075%=      5-min Rain = 0
KES1 141032Z 26002KT 25/20 A2988 RMK A01 T02450197  RH  075%=      5-min Rain = 0
KES1 141033Z 28003KT 25/20 A2988 RMK A01 T02450198  RH  075%=      5-min Rain = 0
KES1 141034Z 28003KT 25/20 A2988 RMK A01 T02450198  RH  075%=      5-min Rain = 0
KES1 141035Z 28003KT 24/20 A2988 RMK A01 T02440198  RH  075%=      5-min Rain = 0
KES1 141036Z 29004KT 25/20 A2988 RMK A01 T02450198  RH  075%=      5-min Rain = 0
KES1 141037Z 30004KT 25/20 A2988 RMK A01 T02450199  RH  075%=      5-min Rain = 0
KES1 141038Z 30003KT 25/20 A2988 RMK A01 T02450198  RH  075%=      5-min Rain = 0
KES1 141039Z 30003KT 25/20 A2988 RMK A01 T02460199  RH  075%=      5-min Rain = 0
KES1 141040Z 32003KT 25/20 A2988 RMK A01 T02450199  RH  075%=      5-min Rain = 0
KES1 141041Z 32003KT 25/20 A2988 RMK A01 T02460198  RH  075%=      5-min Rain = 0
KES1 141042Z 31002KT 25/20 A2988 RMK A01 T02450199  RH  075%=      5-min Rain = 0
KES1 141043Z 27003KT 25/20 A2988 RMK A01 T02450199  RH  076%=      5-min Rain = 0
KES1 141044Z 27002KT 25/20 A2988 RMK A01 T02450198  RH  075%=      5-min Rain = 0
KES1 141045Z 28002KT 24/20 A2988 RMK A01 T02440198  RH  076%=      5-min Rain = 0
KES1 141046Z 29001KT 24/20 A2988 RMK A01 T02430198  RH  076%=      5-min Rain = 0
KES1 141047Z 29002KT 24/20 A2988 RMK A01 T02430198  RH  076%=      5-min Rain = 0
KES1 141048Z 29003KT 24/20 A2988 RMK A01 T02430200  RH  077%=      5-min Rain = 0
KES1 141049Z 30003KT 24/20 A2988 RMK A01 T02430200  RH  077%=      5-min Rain = 0
KES1 141050Z 31003KT 24/20 A2988 RMK A01 T02430201  RH  077%=      5-min Rain = 0
KES1 141051Z 31003KT 24/20 A2988 RMK A01 T02430201  RH  077%=      5-min Rain = 0
KES1 141052Z 31003KT 24/20 A2988 RMK A01 T02430201  RH  077%=      5-min Rain = 0
KES1 141053Z 31004KT 24/20 A2988 RMK A01 T02430201  RH  077%=      5-min Rain = 0
KES1 141054Z 31004KT 24/20 A2988 RMK A01 T02440202  RH  077%=      5-min Rain = 0
KES1 141055Z 32004KT 24/20 A2988 RMK A01 T02440202  RH  077%=      5-min Rain = 0
KES1 141056Z 31003KT 25/20 A2988 RMK A01 T02450202  RH  077%=      5-min Rain = 0
KES1 141057Z 31002KT 25/20 A2988 RMK A01 T02450202  RH  077%=      5-min Rain = 0
KES1 141058Z 31003KT 25/20 A2988 RMK A01 T02450202  RH  077%=      5-min Rain = 0
KES1 141059Z 31003KT 25/20 A2988 RMK A01 T02450202  RH  077%=      5-min Rain = 0
KES1 141100Z 30003KT 25/20 A2988 RMK A01 T02450204  RH  077%=      5-min Rain = 0
KES1 141101Z 29004KT 25/20 A2988 RMK A01 T02460203  RH  077%=      5-min Rain = 0
KES1 141102Z 29003KT 25/20 A2988 RMK A01 T02460203  RH  077%=      5-min Rain = 0
KES1 141103Z 29003KT 25/20 A2988 RMK A01 T02460203  RH  077%=      5-min Rain = 0
KES1 141104Z 28003KT 25/20 A2988 RMK A01 T02450203  RH  077%=      5-min Rain = 0
KES1 141105Z 29003KT 25/20 A2988 RMK A01 T02450203  RH  077%=      5-min Rain = 0
KES1 141106Z 30003KT 24/20 A2988 RMK A01 T02440203  RH  078%=      5-min Rain = 0
KES1 141107Z 30003KT 24/20 A2988 RMK A01 T02440203  RH  078%=      5-min Rain = 0
KES1 141108Z 29003KT 24/20 A2988 RMK A01 T02430204  RH  078%=      5-min Rain = 0
KES1 141109Z 29002KT 24/20 A2988 RMK A01 T02430204  RH  078%=      5-min Rain = 0
KES1 141110Z 30002KT 24/20 A2988 RMK A01 T02440204  RH  078%=      5-min Rain = 0
KES1 141111Z 30002KT 24/20 A2988 RMK A01 T02430204  RH  079%=      5-min Rain = 0
KES1 141112Z 31002KT 24/20 A2988 RMK A01 T02430204  RH  079%=      5-min Rain = 0
KES1 141113Z 31002KT 24/20 A2988 RMK A01 T02430203  RH  078%=      5-min Rain = 0
KES1 141114Z 32002KT 24/20 A2988 RMK A01 T02430203  RH  078%=      5-min Rain = 0
KES1 141115Z 32003KT 24/20 A2988 RMK A01 T02430203  RH  078%=      5-min Rain = 0
KES1 141116Z 32003KT 24/20 A2988 RMK A01 T02440203  RH  078%=      5-min Rain = 0
KES1 141117Z 32004KT 24/20 A2988 RMK A01 T02440203  RH  078%=      5-min Rain = 0
KES1 141118Z 32004KT 25/20 A2988 RMK A01 T02450204  RH  078%=      5-min Rain = 0
KES1 141119Z 32004KT 25/20 A2988 RMK A01 T02450204  RH  078%=      5-min Rain = 0
KES1 141120Z 31004KT 25/20 A2988 RMK A01 T02450204  RH  078%=      5-min Rain = 0
KES1 141121Z 31003KT 25/21 A2988 RMK A01 T02450205  RH  078%=      5-min Rain = 0
KES1 141122Z 30003KT 25/20 A2988 RMK A01 T02450204  RH  078%=      5-min Rain = 0
KES1 141123Z 30002KT 24/20 A2988 RMK A01 T02440204  RH  078%=      5-min Rain = 0
KES1 141124Z 30002KT 24/20 A2988 RMK A01 T02440204  RH  078%=      5-min Rain = 0
KES1 141125Z 30002KT 24/21 A2988 RMK A01 T02430205  RH  079%=      5-min Rain = 0
KES1 141126Z 29002KT 24/21 A2988 RMK A01 T02430205  RH  079%=      5-min Rain = 0
KES1 141127Z 28003KT 24/21 A2988 RMK A01 T02430206  RH  080%=      5-min Rain = 0
KES1 141128Z 26003KT 24/21 A2988 RMK A01 T02430206  RH  080%=      5-min Rain = 0
KES1 141129Z 25003KT 24/21 A2988 RMK A01 T02430205  RH  079%=      5-min Rain = 0
KES1 141130Z 25003KT 24/20 A2988 RMK A01 T02420204  RH  080%=      5-min Rain = 0
KES1 141131Z 24003KT 24/21 A2988 RMK A01 T02400205  RH  080%=      5-min Rain = 0
KES1 141132Z 23003KT 24/21 A2988 RMK A01 T02400205  RH  081%=      5-min Rain = 0
KES1 141133Z 24003KT 24/20 A2988 RMK A01 T02390204  RH  081%=      5-min Rain = 0
KES1 141134Z 25003KT 24/20 A2988 RMK A01 T02390204  RH  081%=      5-min Rain = 0
KES1 141135Z 26003KT 24/20 A2988 RMK A01 T02380204  RH  081%=      5-min Rain = 0
KES1 141136Z 27003KT 24/20 A2988 RMK A01 T02380203  RH  081%=      5-min Rain = 0
KES1 141137Z 27003KT 24/20 A2988 RMK A01 T02380204  RH  081%=      5-min Rain = 0
KES1 141138Z 27003KT 24/20 A2988 RMK A01 T02380204  RH  081%=      5-min Rain = 0
KES1 141139Z 26003KT 24/20 A2988 RMK A01 T02380203  RH  081%=      5-min Rain = 0
KES1 141140Z 26002KT 24/20 A2988 RMK A01 T02380204  RH  081%=      5-min Rain = 0
KES1 141141Z 26002KT 24/20 A2988 RMK A01 T02380204  RH  081%=      5-min Rain = 0
KES1 141142Z 27002KT 24/20 A2989 RMK A01 T02370204  RH  081%=      5-min Rain = 0
KES1 141143Z 28003KT 24/20 A2989 RMK A01 T02370204  RH  081%=      5-min Rain = 0
KES1 141144Z 27003KT 24/20 A2989 RMK A01 T02370204  RH  082%=      5-min Rain = 0
KES1 141145Z 27003KT 24/20 A2989 RMK A01 T02370203  RH  081%=      5-min Rain = 0
KES1 141146Z 26003KT 24/20 A2989 RMK A01 T02370203  RH  081%=      5-min Rain = 0
KES1 141147Z 25003KT 24/20 A2989 RMK A01 T02370203  RH  081%=      5-min Rain = 0
KES1 141148Z 24003KT 24/20 A2989 RMK A01 T02370203  RH  081%=      5-min Rain = 0
KES1 141149Z 24003KT 24/20 A2989 RMK A01 T02360202  RH  082%=      5-min Rain = 0
KES1 141150Z 25003KT 24/20 A2989 RMK A01 T02350202  RH  082%=      5-min Rain = 0
KES1 141151Z 26003KT 23/20 A2989 RMK A01 T02340202  RH  082%=      5-min Rain = 0
KES1 141152Z 25003KT 23/20 A2989 RMK A01 T02340203  RH  082%=      5-min Rain = 0
KES1 141153Z 25004KT 23/20 A2989 RMK A01 T02340202  RH  082%=      5-min Rain = 0
KES1 141154Z 25004KT 23/20 A2989 RMK A01 T02340202  RH  082%=      5-min Rain = 0
KES1 141155Z 25003KT 23/20 A2989 RMK A01 T02340202  RH  082%=      5-min Rain = 0
KES1 141156Z 25003KT 23/20 A2989 RMK A01 T02340202  RH  082%=      5-min Rain = 0
KES1 141157Z 25003KT 23/20 A2989 RMK A01 T02340202  RH  082%=      5-min Rain = 0
KES1 141158Z 25004KT 23/20 A2989 RMK A01 T02340202  RH  082%=      5-min Rain = 0
KES1 141159Z 25003KT 23/20 A2989 RMK A01 T02340202  RH  082%=      5-min Rain = 0
KES1 141200Z 25003KT 23/20 A2989 RMK A01 T02340202  RH  082%=      5-min Rain = 0
KES1 141201Z 25004KT 23/20 A2989 RMK A01 T02340202  RH  082%=      5-min Rain = 0
KES1 141202Z 25004KT 23/20 A2989 RMK A01 T02340202  RH  082%=      5-min Rain = 0
KES1 141203Z 25004KT 23/20 A2989 RMK A01 T02340203  RH  082%=      5-min Rain = 0
KES1 141204Z 25003KT 23/20 A2989 RMK A01 T02340202  RH  082%=      5-min Rain = 0
KES1 141205Z 25004KT 24/20 A2989 RMK A01 T02350203  RH  083%=      5-min Rain = 0
KES1 141206Z 26004KT 23/20 A2989 RMK A01 T02340203  RH  082%=      5-min Rain = 0
KES1 141207Z 25004KT 23/20 A2989 RMK A01 T02340203  RH  082%=      5-min Rain = 0
KES1 141208Z 25004KT 23/20 A2989 RMK A01 T02340203  RH  082%=      5-min Rain = 0
KES1 141209Z 24004KT 23/20 A2989 RMK A01 T02340203  RH  082%=      5-min Rain = 0
KES1 141210Z 24004KT 23/20 A2989 RMK A01 T02340203  RH  083%=      5-min Rain = 0
KES1 141211Z 25005KT 23/20 A2989 RMK A01 T02340203  RH  083%=      5-min Rain = 0
KES1 141212Z 25005KT 23/20 A2989 RMK A01 T02330203  RH  083%=      5-min Rain = 0
KES1 141213Z 25004KT 23/20 A2989 RMK A01 T02330203  RH  083%=      5-min Rain = 0
KES1 141214Z 25004KT 23/20 A2989 RMK A01 T02340203  RH  083%=      5-min Rain = 0
KES1 141215Z 24005KT 23/20 A299 RMK A01 T02330203  RH  083%=      5-min Rain = 0
KES1 141216Z 24004KT 23/20 A299 RMK A01 T02330203  RH  083%=      5-min Rain = 0
KES1 141217Z 25004KT 23/20 A299 RMK A01 T02340203  RH  083%=      5-min Rain = 0
KES1 141218Z 25004KT 23/20 A299 RMK A01 T02340204  RH  083%=      5-min Rain = 0
KES1 141219Z 24004KT 23/20 A299 RMK A01 T02330204  RH  083%=      5-min Rain = 0
KES1 141220Z 24003KT 23/20 A299 RMK A01 T02330204  RH  083%=      5-min Rain = 0
KES1 141221Z 24003KT 23/20 A299 RMK A01 T02340204  RH  083%=      5-min Rain = 0
KES1 141222Z 24003KT 23/20 A299 RMK A01 T02340204  RH  083%=      5-min Rain = 0
KES1 141223Z 25004KT 23/20 A299 RMK A01 T02340203  RH  083%=      5-min Rain = 0
KES1 141224Z 25003KT 23/20 A299 RMK A01 T02340203  RH  083%=      5-min Rain = 0
KES1 141225Z 24003KT 23/20 A299 RMK A01 T02340204  RH  083%=      5-min Rain = 0
KES1 141226Z 23003KT 23/20 A299 RMK A01 T02340204  RH  083%=      5-min Rain = 0
KES1 141227Z 25003KT 23/20 A299 RMK A01 T02340204  RH  083%=      5-min Rain = 0
KES1 141228Z 24003KT 23/20 A299 RMK A01 T02340204  RH  083%=      5-min Rain = 0
KES1 141229Z 25003KT 23/20 A299 RMK A01 T02340204  RH  083%=      5-min Rain = 0
KES1 141230Z 25003KT 23/20 A299 RMK A01 T02340204  RH  083%=      5-min Rain = 0
KES1 141231Z 24003KT 23/20 A299 RMK A01 T02340204  RH  083%=      5-min Rain = 0
KES1 141232Z 24002KT 23/20 A299 RMK A01 T02340204  RH  083%=      5-min Rain = 0
KES1 141233Z 25003KT 24/20 A299 RMK A01 T02350204  RH  083%=      5-min Rain = 0
KES1 141234Z 26003KT 24/20 A299 RMK A01 T02350204  RH  083%=      5-min Rain = 0
KES1 141235Z 26003KT 24/21 A299 RMK A01 T02350205  RH  083%=      5-min Rain = 0
KES1 141236Z 25003KT 24/21 A299 RMK A01 T02360205  RH  083%=      5-min Rain = 0
KES1 141237Z 25003KT 24/21 A299 RMK A01 T02370205  RH  082%=      5-min Rain = 0
KES1 141238Z 24003KT 24/21 A299 RMK A01 T02370205  RH  082%=      5-min Rain = 0
KES1 141239Z 23003KT 24/21 A299 RMK A01 T02370205  RH  082%=      5-min Rain = 0
KES1 141240Z 24003KT 24/21 A299 RMK A01 T02380205  RH  082%=      5-min Rain = 0
KES1 141241Z 24003KT 24/21 A299 RMK A01 T02380205  RH  082%=      5-min Rain = 0
KES1 141242Z 23003KT 24/21 A299 RMK A01 T02390206  RH  082%=      5-min Rain = 0
KES1 141243Z 23003KT 24/21 A299 RMK A01 T02400206  RH  081%=      5-min Rain = 0
KES1 141244Z 24003KT 24/21 A299 RMK A01 T02400206  RH  081%=      5-min Rain = 0
KES1 141245Z 24003KT 24/21 A299 RMK A01 T02410206  RH  081%=      5-min Rain = 0
KES1 141246Z 24003KT 24/21 A299 RMK A01 T02410206  RH  081%=      5-min Rain = 0
KES1 141247Z 23003KT 24/21 A299 RMK A01 T02410206  RH  080%=      5-min Rain = 0
KES1 141248Z 23003KT 24/21 A299 RMK A01 T02420206  RH  080%=      5-min Rain = 0
KES1 141249Z 25002KT 24/21 A299 RMK A01 T02420206  RH  080%=      5-min Rain = 0
KES1 141250Z 25002KT 24/21 A299 RMK A01 T02430206  RH  080%=      5-min Rain = 0
KES1 141251Z 24003KT 24/21 A299 RMK A01 T02440207  RH  080%=      5-min Rain = 0
KES1 141252Z 24002KT 24/21 A299 RMK A01 T02440207  RH  080%=      5-min Rain = 0
KES1 141253Z 24002KT 25/21 A299 RMK A01 T02450207  RH  079%=      5-min Rain = 0
KES1 141254Z 24002KT 25/21 A299 RMK A01 T02450207  RH  079%=      5-min Rain = 0
KES1 141255Z 22003KT 25/21 A299 RMK A01 T02450207  RH  079%=      5-min Rain = 0
KES1 141256Z 22003KT 25/21 A299 RMK A01 T02460207  RH  079%=      5-min Rain = 0
KES1 141257Z 23003KT 25/21 A299 RMK A01 T02470208  RH  079%=      5-min Rain = 0
KES1 141258Z 24003KT 25/21 A299 RMK A01 T02470208  RH  079%=      5-min Rain = 0
KES1 141259Z 24003KT 25/21 A299 RMK A01 T02480208  RH  078%=      5-min Rain = 0
KES1 141300Z 24003KT 25/21 A299 RMK A01 T02490208  RH  078%=      5-min Rain = 0
KES1 141301Z 25003KT 25/21 A299 RMK A01 T02490209  RH  078%=      5-min Rain = 0
KES1 141302Z 24004KT 25/21 A299 RMK A01 T02500209  RH  078%=      5-min Rain = 0
KES1 141303Z 24003KT 25/21 A299 RMK A01 T02490209  RH  078%=      5-min Rain = 0
KES1 141304Z 24004KT 25/21 A2991 RMK A01 T02500209  RH  078%=      5-min Rain = 0
KES1 141305Z 22004KT 25/21 A2991 RMK A01 T02510209  RH  078%=      5-min Rain = 0
KES1 141306Z 23005KT 25/21 A2991 RMK A01 T02520210  RH  078%=      5-min Rain = 0
KES1 141307Z 23005KT 25/21 A2991 RMK A01 T02520211  RH  078%=      5-min Rain = 0
KES1 141308Z 23005KT 25/21 A2991 RMK A01 T02530211  RH  078%=      5-min Rain = 0
KES1 141309Z 22005KT 25/21 A2991 RMK A01 T02530211  RH  078%=      5-min Rain = 0
KES1 141310Z 22003KT 25/21 A2991 RMK A01 T02530211  RH  077%=      5-min Rain = 0
KES1 141311Z 22004KT 25/21 A2991 RMK A01 T02540210  RH  077%=      5-min Rain = 0
KES1 141312Z 23002KT 25/21 A2991 RMK A01 T02540210  RH  077%=      5-min Rain = 0
KES1 141313Z 22004KT 26/21 A2991 RMK A01 T02550210  RH  076%=      5-min Rain = 0
KES1 141314Z 22003KT 26/21 A2991 RMK A01 T02560211  RH  076%=      5-min Rain = 0
KES1 141315Z 21002KT 26/21 A2991 RMK A01 T02560210  RH  076%=      5-min Rain = 0
KES1 141316Z 22003KT 26/21 A2991 RMK A01 T02560210  RH  076%=      5-min Rain = 0
KES1 141317Z 21003KT 26/21 A2991 RMK A01 T02560210  RH  075%=      5-min Rain = 0
KES1 141318Z 20003KT 26/21 A2991 RMK A01 T02560210  RH  075%=      5-min Rain = 0
KES1 141319Z 21003KT 26/21 A2991 RMK A01 T02570210  RH  075%=      5-min Rain = 0
KES1 141320Z 22003KT 26/21 A2991 RMK A01 T02570211  RH  075%=      5-min Rain = 0
KES1 141321Z 22003KT 26/21 A2991 RMK A01 T02590211  RH  075%=      5-min Rain = 0
KES1 141322Z 21003KT 26/21 A2991 RMK A01 T02600211  RH  074%=      5-min Rain = 0
KES1 141323Z 20004KT 26/21 A2991 RMK A01 T02610212  RH  074%=      5-min Rain = 0
KES1 141324Z 21003KT 26/21 A2991 RMK A01 T02600212  RH  075%=      5-min Rain = 0
KES1 141325Z 22002KT 26/21 A2991 RMK A01 T02610212  RH  074%=      5-min Rain = 0
KES1 141326Z 20003KT 26/21 A2991 RMK A01 T02620213  RH  074%=      5-min Rain = 0
KES1 141327Z 20002KT 26/21 A2991 RMK A01 T02630213  RH  074%=      5-min Rain = 0
KES1 141328Z 22003KT 26/21 A2991 RMK A01 T02620213  RH  074%=      5-min Rain = 0
KES1 141329Z 20003KT 26/21 A2991 RMK A01 T02640214  RH  074%=      5-min Rain = 0
KES1 141330Z 20002KT 26/21 A2991 RMK A01 T02640214  RH  074%=      5-min Rain = 0
KES1 141331Z 24002KT 27/21 A2991 RMK A01 T02650214  RH  073%=      5-min Rain = 0
KES1 141332Z 25003KT 27/22 A2991 RMK A01 T02660215  RH  073%=      5-min Rain = 0
KES1 141333Z 22002KT 27/22 A2991 RMK A01 T02670215  RH  073%=      5-min Rain = 0
KES1 141334Z 20003KT 27/22 A2991 RMK A01 T02670215  RH  073%=      5-min Rain = 0
KES1 141335Z 22003KT 27/22 A2991 RMK A01 T02680215  RH  073%=      5-min Rain = 0
KES1 141336Z 24003KT 27/22 A2991 RMK A01 T02680216  RH  073%=      5-min Rain = 0
KES1 141337Z 26002KT 27/22 A2991 RMK A01 T02690216  RH  073%=      5-min Rain = 0
KES1 141338Z 22001KT 27/22 A2991 RMK A01 T02700216  RH  072%=      5-min Rain = 0
KES1 141339Z 22002KT 27/22 A2991 RMK A01 T02710217  RH  072%=      5-min Rain = 0
KES1 141340Z 25001KT 27/22 A2991 RMK A01 T02720217  RH  072%=      5-min Rain = 0
KES1 141341Z 27002KT 27/22 A2992 RMK A01 T02720217  RH  072%=      5-min Rain = 0
KES1 141342Z 26001KT 27/22 A2992 RMK A01 T02720218  RH  072%=      5-min Rain = 0
KES1 141343Z 27001KT 27/22 A2992 RMK A01 T02720218  RH  072%=      5-min Rain = 0
KES1 141344Z 29001KT 27/22 A2992 RMK A01 T02720217  RH  072%=      5-min Rain = 0
KES1 141345Z 30001KT 27/22 A2992 RMK A01 T02720217  RH  072%=      5-min Rain = 0
KES1 141346Z 34001KT 27/22 A2992 RMK A01 T02730217  RH  072%=      5-min Rain = 0
KES1 141347Z 34001KT 27/22 A2992 RMK A01 T02740217  RH  071%=      5-min Rain = 0
KES1 141348Z 34002KT 28/22 A2992 RMK A01 T02750217  RH  071%=      5-min Rain = 0
KES1 141349Z 32001KT 28/22 A2992 RMK A01 T02760218  RH  071%=      5-min Rain = 0
KES1 141350Z 31001KT 28/22 A2992 RMK A01 T02780218  RH  070%=      5-min Rain = 0
KES1 141351Z 29001KT 28/22 A2992 RMK A01 T02780218  RH  070%=      5-min Rain = 0
KES1 141352Z 29001KT 28/22 A2992 RMK A01 T02780218  RH  070%=      5-min Rain = 0
KES1 141353Z 30001KT 28/22 A2992 RMK A01 T02780219  RH  070%=      5-min Rain = 0
KES1 141354Z 32002KT 28/22 A2992 RMK A01 T02780219  RH  070%=      5-min Rain = 0
KES1 141355Z 34003KT 28/22 A2992 RMK A01 T02800221  RH  070%=      5-min Rain = 0
KES1 141356Z 34002KT 28/22 A2992 RMK A01 T02800221  RH  070%=      5-min Rain = 0
KES1 141357Z 33002KT 28/22 A2992 RMK A01 T02790221  RH  071%=      5-min Rain = 0
KES1 141358Z 33003KT 28/22 A2992 RMK A01 T02770221  RH  071%=      5-min Rain = 0
KES1 141359Z 33002KT 28/22 A2992 RMK A01 T02770221  RH  072%=      5-min Rain = 0
KES1 141400Z 33002KT 28/22 A2992 RMK A01 T02770221  RH  072%=      5-min Rain = 0
KES1 141401Z 34001KT 28/22 A2992 RMK A01 T02770221  RH  072%=      5-min Rain = 0
KES1 141402Z 35000KT 28/22 A2992 RMK A01 T02770220  RH  071%=      5-min Rain = 0
KES1 141403Z 01001KT 28/22 A2992 RMK A01 T02790221  RH  071%=      5-min Rain = 0
KES1 141404Z 30002KT 28/22 A2992 RMK A01 T02820221  RH  070%=      5-min Rain = 0
KES1 141405Z 29002KT 28/22 A2992 RMK A01 T02830220  RH  069%=      5-min Rain = 0
KES1 141406Z 31002KT 28/22 A2992 RMK A01 T02830221  RH  069%=      5-min Rain = 0
KES1 141407Z 32001KT 28/22 A2992 RMK A01 T02840221  RH  069%=      5-min Rain = 0
KES1 141408Z 35002KT 28/22 A2992 RMK A01 T02840221  RH  069%=      5-min Rain = 0
KES1 141409Z 35002KT 28/22 A2992 RMK A01 T02830220  RH  069%=      5-min Rain = 0
KES1 141410Z 00002KT 28/22 A2992 RMK A01 T02830220  RH  069%=      5-min Rain = 0
KES1 141411Z 00002KT 28/22 A2992 RMK A01 T02840220  RH  068%=      5-min Rain = 0
KES1 141412Z 34002KT 28/22 A2992 RMK A01 T02840219  RH  068%=      5-min Rain = 0
KES1 141413Z 35002KT 28/22 A2992 RMK A01 T02840220  RH  068%=      5-min Rain = 0
KES1 141414Z 33002KT 28/22 A2992 RMK A01 T02840220  RH  068%=      5-min Rain = 0
KES1 141415Z 34002KT 28/22 A2992 RMK A01 T02840220  RH  068%=      5-min Rain = 0
KES1 141416Z 33001KT 28/22 A2992 RMK A01 T02830220  RH  069%=      5-min Rain = 0
KES1 141417Z 33000KT 28/22 A2992 RMK A01 T02830220  RH  069%=      5-min Rain = 0
KES1 141418Z 36001KT 29/22 A2992 RMK A01 T02850221  RH  068%=      5-min Rain = 0
KES1 141419Z 01000KT 29/22 A2992 RMK A01 T02870220  RH  067%=      5-min Rain = 0
KES1 141420Z 05000KT 29/22 A2992 RMK A01 T02880220  RH  067%=      5-min Rain = 0
KES1 141421Z 34001KT 29/22 A2992 RMK A01 T02900221  RH  066%=      5-min Rain = 0
KES1 141422Z 35002KT 29/22 A2992 RMK A01 T02920220  RH  065%=      5-min Rain = 0
KES1 141423Z 34002KT 29/22 A2992 RMK A01 T02920219  RH  065%=      5-min Rain = 0
KES1 141424Z 33002KT 29/22 A2992 RMK A01 T02930218  RH  064%=      5-min Rain = 0
KES1 141425Z 33002KT 29/22 A2992 RMK A01 T02940217  RH  063%=      5-min Rain = 0
KES1 141426Z 34001KT 29/22 A2992 RMK A01 T02940217  RH  064%=      5-min Rain = 0
KES1 141427Z 35002KT 29/22 A2992 RMK A01 T02940217  RH  063%=      5-min Rain = 0
KES1 141428Z 35001KT 29/22 A2992 RMK A01 T02940217  RH  063%=      5-min Rain = 0
KES1 141429Z 32002KT 29/22 A2992 RMK A01 T02940217  RH  063%=      5-min Rain = 0
KES1 141430Z 32002KT 30/22 A2992 RMK A01 T02960218  RH  063%=      5-min Rain = 0
KES1 141431Z 32002KT 30/22 A2992 RMK A01 T02980218  RH  062%=      5-min Rain = 0
KES1 141432Z 31001KT 30/22 A2992 RMK A01 T02980216  RH  062%=      5-min Rain = 0
KES1 141433Z 35000KT 30/22 A2992 RMK A01 T02980216  RH  062%=      5-min Rain = 0
KES1 141434Z 35002KT 30/22 A2992 RMK A01 T02990219  RH  062%=      5-min Rain = 0
KES1 141435Z 33002KT 30/22 A2992 RMK A01 T02990220  RH  063%=      5-min Rain = 0
KES1 141436Z 35002KT 30/22 A2992 RMK A01 T02990219  RH  062%=      5-min Rain = 0
KES1 141437Z 35002KT 30/22 A2992 RMK A01 T02990219  RH  062%=      5-min Rain = 0
KES1 141438Z 34004KT 30/22 A2992 RMK A01 T02990216  RH  061%=      5-min Rain = 0
KES1 141439Z 31002KT 30/21 A2992 RMK A01 T02990213  RH  060%=      5-min Rain = 0
KES1 141440Z 33003KT 30/22 A2992 RMK A01 T02990216  RH  061%=      5-min Rain = 0
KES1 141441Z 35004KT 30/22 A2992 RMK A01 T03000217  RH  061%=      5-min Rain = 0
KES1 141442Z 01003KT 30/22 A2992 RMK A01 T03000217  RH  061%=      5-min Rain = 0
KES1 141443Z 02002KT 30/22 A2992 RMK A01 T03000216  RH  061%=      5-min Rain = 0
KES1 141444Z 36003KT 30/22 A2992 RMK A01 T03000215  RH  060%=      5-min Rain = 0
KES1 141445Z 03003KT 30/22 A2992 RMK A01 T03000215  RH  060%=      5-min Rain = 0
KES1 141446Z 02002KT 30/21 A2992 RMK A01 T03010214  RH  060%=      5-min Rain = 0
KES1 141447Z 00003KT 30/21 A2992 RMK A01 T03010214  RH  059%=      5-min Rain = 0
KES1 141448Z 01004KT 30/22 A2992 RMK A01 T03020215  RH  060%=      5-min Rain = 0
KES1 141449Z 05003KT 30/21 A2992 RMK A01 T03030214  RH  059%=      5-min Rain = 0
KES1 141450Z 01003KT 30/21 A2992 RMK A01 T03040213  RH  058%=      5-min Rain = 0
KES1 141451Z 32003KT 31/21 A2992 RMK A01 T03050210  RH  057%=      5-min Rain = 0
KES1 141452Z 31003KT 31/21 A2992 RMK A01 T03050207  RH  056%=      5-min Rain = 0
KES1 141453Z 33002KT 31/21 A2992 RMK A01 T03060210  RH  057%=      5-min Rain = 0
KES1 141454Z 33002KT 31/21 A2992 RMK A01 T03080211  RH  056%=      5-min Rain = 0
KES1 141455Z 33005KT 31/21 A2992 RMK A01 T03100210  RH  055%=      5-min Rain = 0
KES1 141456Z 33005KT 31/21 A2992 RMK A01 T03100206  RH  054%=      5-min Rain = 0
KES1 141457Z 31004KT 31/21 A2992 RMK A01 T03110205  RH  053%=      5-min Rain = 0
KES1 141458Z 30006KT 31/21 A2992 RMK A01 T03130205  RH  053%=      5-min Rain = 0
KES1 141459Z 29004KT 31/20 A2992 RMK A01 T03130200  RH  051%=      5-min Rain = 0
KES1 141500Z 29003KT 31/20 A2992 RMK A01 T03120201  RH  052%=      5-min Rain = 0
KES1 141501Z 31004KT 31/20 A2992 RMK A01 T03120201  RH  052%=      5-min Rain = 0
KES1 141502Z 30005KT 31/20 A2992 RMK A01 T03120201  RH  052%=      5-min Rain = 0
KES1 141503Z 27004KT 31/20 A2992 RMK A01 T03110201  RH  052%=      5-min Rain = 0
KES1 141504Z 30003KT 31/20 A2992 RMK A01 T03110202  RH  052%=      5-min Rain = 0
KES1 141505Z 34005KT 31/21 A2992 RMK A01 T03110205  RH  053%=      5-min Rain = 0
KES1 141506Z 33004KT 31/21 A2992 RMK A01 T03120206  RH  053%=      5-min Rain = 0
KES1 141507Z 32004KT 31/20 A2992 RMK A01 T03140203  RH  052%=      5-min Rain = 0
KES1 141508Z 30004KT 32/20 A2992 RMK A01 T03150203  RH  051%=      5-min Rain = 0
KES1 141509Z 33003KT 31/20 A2992 RMK A01 T03140204  RH  052%=      5-min Rain = 0
KES1 141510Z 33004KT 32/20 A2992 RMK A01 T03150202  RH  051%=      5-min Rain = 0
KES1 141511Z 35005KT 32/20 A2992 RMK A01 T03160201  RH  050%=      5-min Rain = 0
KES1 141512Z 33005KT 32/20 A2992 RMK A01 T03180203  RH  050%=      5-min Rain = 0
KES1 141513Z 32005KT 32/20 A2992 RMK A01 T03200204  RH  050%=      5-min Rain = 0
KES1 141514Z 31006KT 32/20 A2992 RMK A01 T03200203  RH  050%=      5-min Rain = 0
KES1 141515Z 29005KT 32/20 A2992 RMK A01 T03200197  RH  048%=      5-min Rain = 0
KES1 141516Z 30004KT 32/20 A2992 RMK A01 T03200199  RH  049%=      5-min Rain = 0
KES1 141517Z 31006KT 32/20 A2992 RMK A01 T03220204  RH  050%=      5-min Rain = 0
KES1 141518Z 31004KT 32/20 A2992 RMK A01 T03240203  RH  049%=      5-min Rain = 0
KES1 141519Z 30004KT 32/20 A2992 RMK A01 T03240202  RH  049%=      5-min Rain = 0
KES1 141520Z 28004KT 33/20 A2992 RMK A01 T03250195  RH  046%=      5-min Rain = 0
KES1 141521Z 29005KT 33/19 A2992 RMK A01 T03250192  RH  045%=      5-min Rain = 0
KES1 141522Z 27005KT 33/19 A2992 RMK A01 T03260192  RH  045%=      5-min Rain = 0
KES1 141523Z 31006KT 33/19 A2992 RMK A01 T03260194  RH  046%=      5-min Rain = 0
KES1 141524Z 30006KT 33/19 A2992 RMK A01 T03270192  RH  045%=      5-min Rain = 0
KES1 141525Z 30006KT 33/19 A2992 RMK A01 T03280189  RH  044%=      5-min Rain = 0
KES1 141526Z 30004KT 33/19 A2992 RMK A01 T03280187  RH  043%=      5-min Rain = 0
KES1 141527Z 33005KT 33/19 A2992 RMK A01 T03280189  RH  044%=      5-min Rain = 0
KES1 141528Z 33006KT 33/19 A2992 RMK A01 T03300190  RH  044%=      5-min Rain = 0
KES1 141529Z 30007KT 33/19 A2992 RMK A01 T03320191  RH  043%=      5-min Rain = 0
KES1 141530Z 30006KT 33/19 A2992 RMK A01 T03310188  RH  043%=      5-min Rain = 0
KES1 141531Z 31004KT 33/19 A2992 RMK A01 T03290187  RH  043%=      5-min Rain = 0
KES1 141532Z 30005KT 33/19 A2992 RMK A01 T03300186  RH  043%=      5-min Rain = 0
KES1 141533Z 28005KT 33/19 A2992 RMK A01 T03300186  RH  043%=      5-min Rain = 0
KES1 141534Z 28006KT 33/19 A2992 RMK A01 T03290186  RH  043%=      5-min Rain = 0
KES1 141535Z 28007KT 33/18 A2992 RMK A01 T03290183  RH  042%=      5-min Rain = 0
KES1 141536Z 28006KT 33/18 A2992 RMK A01 T03290182  RH  042%=      5-min Rain = 0
KES1 141537Z 27005KT 33/18 A2992 RMK A01 T03290184  RH  042%=      5-min Rain = 0
KES1 141538Z 30004KT 33/19 A2992 RMK A01 T03270186  RH  043%=      5-min Rain = 0
KES1 141539Z 31007KT 33/19 A2992 RMK A01 T03280186  RH  043%=      5-min Rain = 0
KES1 141540Z 30008KT 33/19 A2992 RMK A01 T03310185  RH  042%=      5-min Rain = 0
KES1 141541Z 29006KT 33/19 A2992 RMK A01 T03320186  RH  042%=      5-min Rain = 0
KES1 141542Z 30004KT 33/18 A2992 RMK A01 T03320184  RH  042%=      5-min Rain = 0
KES1 141543Z 31005KT 33/18 A2992 RMK A01 T03330184  RH  041%=      5-min Rain = 0
KES1 141544Z 30006KT 34/18 A2992 RMK A01 T03350184  RH  041%=      5-min Rain = 0
KES1 141545Z 31007KT 34/19 A2992 RMK A01 T03360185  RH  041%=      5-min Rain = 0
KES1 141546Z 31006KT 34/18 A2992 RMK A01 T03370183  RH  040%=      5-min Rain = 0
KES1 141547Z 32004KT 34/18 A2992 RMK A01 T03380182  RH  040%=      5-min Rain = 0
KES1 141548Z 31003KT 34/18 A2992 RMK A01 T03380182  RH  040%=      5-min Rain = 0
KES1 141549Z 32006KT 34/18 A2992 RMK A01 T03380182  RH  040%=      5-min Rain = 0
KES1 141550Z 30004KT 34/18 A2992 RMK A01 T03380183  RH  040%=      5-min Rain = 0
KES1 141551Z 31006KT 34/18 A2992 RMK A01 T03380183  RH  040%=      5-min Rain = 0
KES1 141552Z 29007KT 34/18 A2992 RMK A01 T03390181  RH  039%=      5-min Rain = 0
KES1 141553Z 29005KT 34/18 A2992 RMK A01 T03390180  RH  039%=      5-min Rain = 0
KES1 141554Z 30004KT 34/18 A2992 RMK A01 T03370181  RH  040%=      5-min Rain = 0
KES1 141555Z 30003KT 34/18 A2992 RMK A01 T03370179  RH  039%=      5-min Rain = 0
KES1 141556Z 31005KT 34/18 A2992 RMK A01 T03360180  RH  040%=      5-min Rain = 0
KES1 141557Z 31004KT 34/18 A2992 RMK A01 T03360182  RH  040%=      5-min Rain = 0
KES1 141558Z 34005KT 34/18 A2992 RMK A01 T03370181  RH  040%=      5-min Rain = 0
KES1 141559Z 34004KT 34/18 A2992 RMK A01 T03380180  RH  039%=      5-min Rain = 0
KES1 141600Z 34003KT 34/18 A2992 RMK A01 T03380182  RH  040%=      5-min Rain = 0
KES1 141601Z 36003KT 34/19 A2992 RMK A01 T03370185  RH  041%=      5-min Rain = 0
KES1 141602Z 02002KT 34/19 A2992 RMK A01 T03350186  RH  041%=      5-min Rain = 0
KES1 141603Z 33003KT 34/19 A2992 RMK A01 T03360186  RH  041%=      5-min Rain = 0
KES1 141604Z 33005KT 34/19 A2992 RMK A01 T03380189  RH  041%=      5-min Rain = 0
KES1 141605Z 34006KT 34/19 A2992 RMK A01 T03410185  RH  040%=      5-min Rain = 0
KES1 141606Z 34005KT 34/19 A2992 RMK A01 T03390185  RH  040%=      5-min Rain = 0
KES1 141607Z 34005KT 34/18 A2992 RMK A01 T03390179  RH  039%=      5-min Rain = 0
KES1 141608Z 33007KT 34/18 A2992 RMK A01 T03390183  RH  040%=      5-min Rain = 0
KES1 141609Z 34005KT 34/18 A2992 RMK A01 T03390182  RH  039%=      5-min Rain = 0
KES1 141610Z 34005KT 34/18 A2992 RMK A01 T03390183  RH  040%=      5-min Rain = 0
KES1 141611Z 35004KT 34/19 A2992 RMK A01 T03380185  RH  041%=      5-min Rain = 0
KES1 141612Z 34004KT 34/19 A2992 RMK A01 T03390186  RH  040%=      5-min Rain = 0
KES1 141613Z 31003KT 34/18 A2992 RMK A01 T03410184  RH  040%=      5-min Rain = 0
KES1 141614Z 30003KT 34/18 A2992 RMK A01 T03410184  RH  039%=      5-min Rain = 0
KES1 141615Z 30004KT 34/19 A2992 RMK A01 T03420185  RH  040%=      5-min Rain = 0
KES1 141616Z 31003KT 34/19 A2992 RMK A01 T03440186  RH  039%=      5-min Rain = 0
KES1 141617Z 31001KT 35/19 A2992 RMK A01 T03450187  RH  039%=      5-min Rain = 0
KES1 141618Z 31004KT 35/19 A2992 RMK A01 T03470186  RH  039%=      5-min Rain = 0
KES1 141619Z 32004KT 35/19 A2992 RMK A01 T03470185  RH  038%=      5-min Rain = 0
KES1 141620Z 31003KT 35/18 A2992 RMK A01 T03460183  RH  038%=      5-min Rain = 0
KES1 141621Z 31003KT 35/18 A2992 RMK A01 T03460181  RH  038%=      5-min Rain = 0
KES1 141622Z 35004KT 35/19 A2992 RMK A01 T03480187  RH  039%=      5-min Rain = 0
KES1 141623Z 36004KT 35/19 A2992 RMK A01 T03490187  RH  039%=      5-min Rain = 0
KES1 141624Z 01004KT 35/19 A2992 RMK A01 T03470190  RH  040%=      5-min Rain = 0
KES1 141625Z 01003KT 35/19 A2992 RMK A01 T03450187  RH  039%=      5-min Rain = 0
KES1 141626Z 05003KT 34/19 A2992 RMK A01 T03440185  RH  039%=      5-min Rain = 0
KES1 141627Z 04004KT 35/19 A2992 RMK A01 T03480189  RH  039%=      5-min Rain = 0
KES1 141628Z 04003KT 35/19 A2992 RMK A01 T03510189  RH  039%=      5-min Rain = 0
KES1 141629Z 35002KT 35/19 A2992 RMK A01 T03490189  RH  039%=      5-min Rain = 0
KES1 141630Z 30001KT 35/19 A2992 RMK A01 T03460190  RH  040%=      5-min Rain = 0
KES1 141631Z 04000KT 35/19 A2992 RMK A01 T03460191  RH  040%=      5-min Rain = 0
KES1 141632Z 02000KT 35/19 A2992 RMK A01 T03470192  RH  040%=      5-min Rain = 0
KES1 141633Z 05002KT 35/19 A2992 RMK A01 T03470193  RH  040%=      5-min Rain = 0
KES1 141634Z 05004KT 35/20 A2992 RMK A01 T03510197  RH  040%=      5-min Rain = 0
KES1 141635Z 04003KT 35/20 A2992 RMK A01 T03520197  RH  040%=      5-min Rain = 0
KES1 141636Z 06003KT 35/20 A2992 RMK A01 T03530198  RH  040%=      5-min Rain = 0
KES1 141637Z 07002KT 36/20 A2992 RMK A01 T03550197  RH  040%=      5-min Rain = 0
KES1 141638Z 06000KT 35/20 A2992 RMK A01 T03540197  RH  040%=      5-min Rain = 0
KES1 141639Z 30001KT 36/20 A2992 RMK A01 T03550197  RH  040%=      5-min Rain = 0
KES1 141640Z 03001KT 36/20 A2992 RMK A01 T03560197  RH  039%=      5-min Rain = 0
KES1 141641Z 03001KT 36/20 A2992 RMK A01 T03560197  RH  039%=      5-min Rain = 0
KES1 141642Z 04001KT 36/20 A2992 RMK A01 T03570198  RH  039%=      5-min Rain = 0
KES1 141643Z 05001KT 36/20 A2992 RMK A01 T03590197  RH  039%=      5-min Rain = 0
KES1 141644Z 05000KT 36/20 A2992 RMK A01 T03610198  RH  039%=      5-min Rain = 0
KES1 141645Z 34001KT 36/20 A2992 RMK A01 T03630196  RH  038%=      5-min Rain = 0
KES1 141646Z 34003KT 36/19 A2992 RMK A01 T03630192  RH  037%=      5-min Rain = 0
KES1 141647Z 33002KT 36/19 A2992 RMK A01 T03620193  RH  037%=      5-min Rain = 0
KES1 141648Z 01002KT 36/19 A2992 RMK A01 T03610194  RH  038%=      5-min Rain = 0
KES1 141649Z 01003KT 36/19 A2992 RMK A01 T03600194  RH  038%=      5-min Rain = 0
KES1 141650Z 03005KT 36/20 A2992 RMK A01 T03600195  RH  038%=      5-min Rain = 0
KES1 141651Z 03004KT 36/20 A2992 RMK A01 T03600195  RH  038%=      5-min Rain = 0
KES1 141652Z 04005KT 36/20 A2992 RMK A01 T03580195  RH  039%=      5-min Rain = 0
KES1 141653Z 05005KT 36/19 A2992 RMK A01 T03570188  RH  037%=      5-min Rain = 0
KES1 141654Z 04004KT 36/18 A2992 RMK A01 T03560184  RH  036%=      5-min Rain = 0
KES1 141655Z 06002KT 35/18 A2992 RMK A01 T03540180  RH  036%=      5-min Rain = 0
KES1 141656Z 08000KT 35/18 A2992 RMK A01 T03530181  RH  036%=      5-min Rain = 0
KES1 141657Z 07003KT 36/18 A2992 RMK A01 T03550183  RH  036%=      5-min Rain = 0
KES1 141658Z 05003KT 36/18 A2992 RMK A01 T03550182  RH  036%=      5-min Rain = 0
KES1 141659Z 04004KT 36/19 A2992 RMK A01 T03580186  RH  036%=      5-min Rain = 0
KES1 141700Z 35005KT 36/18 A2992 RMK A01 T03600184  RH  035%=      5-min Rain = 0
KES1 141701Z 36004KT 36/18 A2992 RMK A01 T03590180  RH  035%=      5-min Rain = 0
KES1 141702Z 01001KT 36/18 A2992 RMK A01 T03570179  RH  035%=      5-min Rain = 0
KES1 141703Z 01003KT 36/18 A2992 RMK A01 T03580180  RH  035%=      5-min Rain = 0
KES1 141704Z 03004KT 36/18 A2992 RMK A01 T03590182  RH  035%=      5-min Rain = 0
KES1 141705Z 03003KT 36/18 A2992 RMK A01 T03600181  RH  035%=      5-min Rain = 0
KES1 141706Z 04004KT 36/18 A2992 RMK A01 T03630179  RH  034%=      5-min Rain = 0
KES1 141707Z 06003KT 36/18 A2992 RMK A01 T03630183  RH  035%=      5-min Rain = 0
KES1 141708Z 03001KT 36/18 A2992 RMK A01 T03620178  RH  034%=      5-min Rain = 0
KES1 141709Z 33002KT 36/18 A2992 RMK A01 T03610178  RH  034%=      5-min Rain = 0
KES1 141710Z 00004KT 36/18 A2992 RMK A01 T03610184  RH  035%=      5-min Rain = 0
KES1 141711Z 00005KT 37/18 A2992 RMK A01 T03650183  RH  035%=      5-min Rain = 0
KES1 141712Z 35002KT 36/18 A2992 RMK A01 T03630182  RH  034%=      5-min Rain = 0
KES1 141713Z 36003KT 36/18 A2992 RMK A01 T03590179  RH  035%=      5-min Rain = 0
KES1 141714Z 04005KT 36/18 A2992 RMK A01 T03600178  RH  034%=      5-min Rain = 0
KES1 141715Z 07006KT 36/18 A2992 RMK A01 T03640182  RH  034%=      5-min Rain = 0
KES1 141716Z 07007KT 37/18 A2991 RMK A01 T03670179  RH  033%=      5-min Rain = 0
KES1 141717Z 07005KT 37/18 A2991 RMK A01 T03650177  RH  033%=      5-min Rain = 0
KES1 141718Z 08003KT 36/18 A2991 RMK A01 T03630176  RH  033%=      5-min Rain = 0
KES1 141719Z 03007KT 36/18 A2991 RMK A01 T03620177  RH  034%=      5-min Rain = 0
KES1 141720Z 08006KT 37/18 A2991 RMK A01 T03650180  RH  034%=      5-min Rain = 0
KES1 141721Z 09004KT 37/18 A2991 RMK A01 T03660179  RH  033%=      5-min Rain = 0
KES1 141722Z 11004KT 37/18 A2991 RMK A01 T03670181  RH  033%=      5-min Rain = 0
KES1 141723Z 10004KT 37/18 A2991 RMK A01 T03710179  RH  032%=      5-min Rain = 0
KES1 141724Z 01003KT 37/18 A2991 RMK A01 T03730178  RH  032%=      5-min Rain = 0
KES1 141725Z 05002KT 37/18 A2991 RMK A01 T03730178  RH  032%=      5-min Rain = 0
KES1 141726Z 04005KT 38/18 A2991 RMK A01 T03750182  RH  032%=      5-min Rain = 0
KES1 141727Z 02003KT 37/18 A2991 RMK A01 T03740182  RH  033%=      5-min Rain = 0
KES1 141728Z 07006KT 37/18 A2991 RMK A01 T03740183  RH  033%=      5-min Rain = 0
KES1 141729Z 09006KT 38/18 A2991 RMK A01 T03760182  RH  032%=      5-min Rain = 0
KES1 141730Z 06004KT 37/18 A2991 RMK A01 T03740181  RH  032%=      5-min Rain = 0
KES1 141731Z 11003KT 37/18 A2991 RMK A01 T03720180  RH  032%=      5-min Rain = 0
KES1 141732Z 08003G8KT 37/18 A2991 RMK A01 T03720178  RH  032%=      5-min Rain = 0
KES1 141733Z 08007KT 38/18 A2991 RMK A01 T03760180  RH  032%=      5-min Rain = 0
KES1 141734Z 08004KT 38/18 A2991 RMK A01 T03790180  RH  031%=      5-min Rain = 0
KES1 141735Z 04005KT 38/18 A2991 RMK A01 T03810181  RH  031%=      5-min Rain = 0
KES1 141736Z 05005KT 38/18 A2991 RMK A01 T03810179  RH  031%=      5-min Rain = 0
KES1 141737Z 06002KT 38/18 A2991 RMK A01 T03770178  RH  031%=      5-min Rain = 0
KES1 141738Z 08003G8KT 37/18 A2991 RMK A01 T03740177  RH  031%=      5-min Rain = 0
KES1 141739Z 08007KT 37/18 A2991 RMK A01 T03730178  RH  032%=      5-min Rain = 0
KES1 141740Z 07005KT 37/18 A2991 RMK A01 T03720178  RH  032%=      5-min Rain = 0
KES1 141741Z 08002KT 37/18 A2991 RMK A01 T03730178  RH  032%=      5-min Rain = 0
KES1 141742Z 06006KT 37/18 A2991 RMK A01 T03730179  RH  032%=      5-min Rain = 0
KES1 141743Z 06003KT 38/18 A2991 RMK A01 T03750179  RH  032%=      5-min Rain = 0
KES1 141744Z 06003KT 38/18 A2991 RMK A01 T03770180  RH  032%=      5-min Rain = 0
KES1 141745Z 08002KT 38/18 A2991 RMK A01 T03790180  RH  031%=      5-min Rain = 0
KES1 141746Z 09002KT 38/18 A2991 RMK A01 T03780179  RH  031%=      5-min Rain = 0
KES1 141747Z 12006KT 38/18 A2991 RMK A01 T03780180  RH  031%=      5-min Rain = 0
KES1 141748Z 14003KT 38/18 A2991 RMK A01 T03790182  RH  032%=      5-min Rain = 0
KES1 141749Z 15002KT 38/18 A2991 RMK A01 T03800183  RH  032%=      5-min Rain = 0
KES1 141750Z 12002KT 38/18 A2991 RMK A01 T03810182  RH  031%=      5-min Rain = 0
KES1 141751Z 13003KT 38/18 A2991 RMK A01 T03790180  RH  031%=      5-min Rain = 0
KES1 141752Z 12003KT 38/18 A2991 RMK A01 T03780180  RH  032%=      5-min Rain = 0
KES1 141753Z 10008KT 38/18 A2991 RMK A01 T03810178  RH  031%=      5-min Rain = 0
KES1 141754Z 11006KT 38/18 A2991 RMK A01 T03840178  RH  030%=      5-min Rain = 0
KES1 141755Z 11004KT 38/18 A2991 RMK A01 T03840178  RH  030%=      5-min Rain = 0
KES1 141756Z 09005G10KT 39/18 A2991 RMK A01 T03850179  RH  030%=      5-min Rain = 0
KES1 141757Z 09008KT 39/18 A2991 RMK A01 T03860182  RH  031%=      5-min Rain = 0
KES1 141758Z 11007KT 39/18 A2991 RMK A01 T03850181  RH  031%=      5-min Rain = 0
KES1 141759Z 13005KT 38/18 A2991 RMK A01 T03820182  RH  031%=      5-min Rain = 0
KES1 141800Z 11004KT 38/18 A2991 RMK A01 T03820184  RH  032%=      5-min Rain = 0
KES1 141801Z 10003KT 39/18 A2991 RMK A01 T03860184  RH  031%=      5-min Rain = 0
KES1 141802Z 12004KT 39/18 A2991 RMK A01 T03860183  RH  031%=      5-min Rain = 0
KES1 141803Z 09006KT 39/19 A2991 RMK A01 T03860185  RH  031%=      5-min Rain = 0
KES1 141804Z 10003KT 38/19 A2991 RMK A01 T03830187  RH  032%=      5-min Rain = 0
KES1 141805Z 10001KT 38/19 A2991 RMK A01 T03820186  RH  032%=      5-min Rain = 0
KES1 141806Z 11001KT 38/19 A299 RMK A01 T03800185  RH  032%=      5-min Rain = 0
KES1 141807Z 11004KT 38/19 A299 RMK A01 T03820185  RH  032%=      5-min Rain = 0
KES1 141808Z 13005KT 39/19 A299 RMK A01 T03850185  RH  031%=      5-min Rain = 0
KES1 141809Z 10007KT 39/19 A299 RMK A01 T03900186  RH  031%=      5-min Rain = 0
KES1 141810Z 08008KT 39/19 A299 RMK A01 T03920187  RH  030%=      5-min Rain = 0
KES1 141811Z 04009KT 39/19 A299 RMK A01 T03930188  RH  030%=      5-min Rain = 0
KES1 141812Z 01007KT 39/19 A299 RMK A01 T03930186  RH  030%=      5-min Rain = 0
KES1 141813Z 03009KT 39/19 A299 RMK A01 T03910185  RH  030%=      5-min Rain = 0
KES1 141814Z 06008KT 39/18 A299 RMK A01 T03920184  RH  030%=      5-min Rain = 0
KES1 141815Z 07008KT 40/18 A299 RMK A01 T03960182  RH  029%=      5-min Rain = 0
KES1 141816Z 08007KT 39/18 A299 RMK A01 T03920184  RH  030%=      5-min Rain = 0
KES1 141817Z 08006KT 39/19 A299 RMK A01 T03880187  RH  031%=      5-min Rain = 0
KES1 141818Z 08009KT 39/19 A299 RMK A01 T03880189  RH  032%=      5-min Rain = 0
KES1 141819Z 08006KT 39/19 A299 RMK A01 T03920190  RH  031%=      5-min Rain = 0
KES1 141820Z 06005KT 39/19 A299 RMK A01 T03890190  RH  032%=      5-min Rain = 0
KES1 141821Z 04004KT 39/19 A299 RMK A01 T03900190  RH  032%=      5-min Rain = 0
KES1 141822Z 02002KT 39/19 A299 RMK A01 T03900190  RH  031%=      5-min Rain = 0
KES1 141823Z 07004G9KT 39/19 A299 RMK A01 T03900190  RH  031%=      5-min Rain = 0
KES1 141824Z 07006G13KT 40/18 A299 RMK A01 T03960182  RH  029%=      5-min Rain = 0
KES1 141825Z 07010KT 40/18 A299 RMK A01 T03980181  RH  028%=      5-min Rain = 0
KES1 141826Z 06008KT 40/18 A299 RMK A01 T03970178  RH  028%=      5-min Rain = 0
KES1 141827Z 06010KT 40/18 A299 RMK A01 T03980177  RH  028%=      5-min Rain = 0
KES1 141828Z 06010KT 40/18 A299 RMK A01 T03990184  RH  029%=      5-min Rain = 0
KES1 141829Z 06010KT 40/18 A299 RMK A01 T03970181  RH  029%=      5-min Rain = 0
KES1 141830Z 05008KT 39/18 A299 RMK A01 T03920178  RH  029%=      5-min Rain = 0
KES1 141831Z 05007KT 39/18 A299 RMK A01 T03900177  RH  029%=      5-min Rain = 0
KES1 141832Z 03005KT 39/18 A299 RMK A01 T03940180  RH  029%=      5-min Rain = 0
KES1 141833Z 01004KT 39/18 A299 RMK A01 T03930176  RH  028%=      5-min Rain = 0
KES1 141834Z 36004KT 39/17 A299 RMK A01 T03900174  RH  028%=      5-min Rain = 0
KES1 141835Z 06006KT 39/18 A299 RMK A01 T03870178  RH  030%=      5-min Rain = 0
KES1 141836Z 10009KT 39/19 A299 RMK A01 T03880185  RH  031%=      5-min Rain = 0
KES1 141837Z 11006KT 39/18 A299 RMK A01 T03930184  RH  030%=      5-min Rain = 0
KES1 141838Z 11005KT 40/19 A299 RMK A01 T03970187  RH  030%=      5-min Rain = 0
KES1 141839Z 11007KT 40/19 A299 RMK A01 T04000186  RH  029%=      5-min Rain = 0
KES1 141840Z 10005KT 40/19 A299 RMK A01 T03980186  RH  029%=      5-min Rain = 0
KES1 141841Z 06003KT 39/18 A299 RMK A01 T03940184  RH  030%=      5-min Rain = 0
KES1 141842Z 09005KT 39/18 A299 RMK A01 T03930184  RH  030%=      5-min Rain = 0
KES1 141843Z 06005KT 40/19 A299 RMK A01 T03950186  RH  030%=      5-min Rain = 0
KES1 141844Z 09003KT 39/19 A299 RMK A01 T03940186  RH  030%=      5-min Rain = 0
KES1 141845Z 09003KT 39/19 A299 RMK A01 T03910185  RH  030%=      5-min Rain = 0
KES1 141846Z 08003KT 39/19 A299 RMK A01 T03890186  RH  031%=      5-min Rain = 0
KES1 141847Z 06006KT 39/19 A299 RMK A01 T03920186  RH  030%=      5-min Rain = 0
KES1 141848Z 11010KT 40/19 A299 RMK A01 T03950186  RH  030%=      5-min Rain = 0
KES1 141849Z 10012KT 40/19 A299 RMK A01 T03980185  RH  029%=      5-min Rain = 0
KES1 141850Z 09009KT 40/19 A299 RMK A01 T03980185  RH  029%=      5-min Rain = 0
KES1 141851Z 10007KT 40/18 A299 RMK A01 T03950184  RH  029%=      5-min Rain = 0
KES1 141852Z 12007KT 39/18 A299 RMK A01 T03940183  RH  029%=      5-min Rain = 0
KES1 141853Z 14001KT 39/18 A299 RMK A01 T03910179  RH  029%=      5-min Rain = 0
KES1 141854Z 09008KT 39/18 A299 RMK A01 T03920182  RH  029%=      5-min Rain = 0
KES1 141855Z 07007KT 40/19 A299 RMK A01 T04000186  RH  029%=      5-min Rain = 0
KES1 141856Z 04006KT 41/19 A2989 RMK A01 T04050186  RH  028%=      5-min Rain = 0
KES1 141857Z 06005KT 41/18 A2989 RMK A01 T04050183  RH  028%=      5-min Rain = 0
KES1 141858Z 09006KT 40/18 A2989 RMK A01 T04030181  RH  028%=      5-min Rain = 0
KES1 141859Z 11005KT 40/18 A299 RMK A01 T04000178  RH  028%=      5-min Rain = 0
KES1 141900Z 08004KT 40/18 A2989 RMK A01 T03980179  RH  028%=      5-min Rain = 0
KES1 141901Z 05003KT 40/18 A2989 RMK A01 T03960178  RH  028%=      5-min Rain = 0
KES1 141902Z 11004KT 40/18 A2989 RMK A01 T03970180  RH  028%=      5-min Rain = 0
KES1 141903Z 19002KT 40/18 A2989 RMK A01 T03980179  RH  028%=      5-min Rain = 0
KES1 141904Z 20001KT 40/18 A2989 RMK A01 T03970179  RH  028%=      5-min Rain = 0
KES1 141905Z 10004KT 40/18 A2989 RMK A01 T03970181  RH  029%=      5-min Rain = 0
KES1 141906Z 11005KT 40/18 A2989 RMK A01 T03990181  RH  028%=      5-min Rain = 0
KES1 141907Z 10004KT 40/18 A2989 RMK A01 T03970180  RH  028%=      5-min Rain = 0
KES1 141908Z 12008KT 40/18 A2989 RMK A01 T03970181  RH  029%=      5-min Rain = 0
KES1 141909Z 12007KT 40/18 A2989 RMK A01 T03990179  RH  028%=      5-min Rain = 0
KES1 141910Z 13007KT 40/18 A2989 RMK A01 T03980180  RH  028%=      5-min Rain = 0
KES1 141911Z 14005KT 40/18 A2989 RMK A01 T04000180  RH  028%=      5-min Rain = 0
KES1 141912Z 11006KT 40/18 A2989 RMK A01 T04030180  RH  028%=      5-min Rain = 0
KES1 141913Z 06006KT 41/18 A2989 RMK A01 T04070180  RH  027%=      5-min Rain = 0
KES1 141914Z 05007KT 41/18 A2989 RMK A01 T04060178  RH  027%=      5-min Rain = 0
KES1 141915Z 05007KT 40/18 A2989 RMK A01 T04020176  RH  027%=      5-min Rain = 0
KES1 141916Z 09010KT 40/18 A2989 RMK A01 T03990176  RH  027%=      5-min Rain = 0
KES1 141917Z 06012KT 40/18 A2989 RMK A01 T03990177  RH  028%=      5-min Rain = 0
KES1 141918Z 06009KT 40/18 A2989 RMK A01 T04010177  RH  027%=      5-min Rain = 0
KES1 141919Z 07010KT 41/17 A2989 RMK A01 T04050173  RH  026%=      5-min Rain = 0
KES1 141920Z 06008KT 41/17 A2989 RMK A01 T04050170  RH  026%=      5-min Rain = 0
KES1 141921Z 06006KT 41/17 A2989 RMK A01 T04050168  RH  025%=      5-min Rain = 0
KES1 141922Z 06007KT 41/17 A2989 RMK A01 T04070171  RH  025%=      5-min Rain = 0
KES1 141923Z 06006KT 40/18 A2989 RMK A01 T04030176  RH  027%=      5-min Rain = 0
KES1 141924Z 03004KT 40/18 A2988 RMK A01 T03990176  RH  027%=      5-min Rain = 0
KES1 141925Z 05003KT 40/18 A2988 RMK A01 T04000176  RH  027%=      5-min Rain = 0
KES1 141926Z 04004KT 40/18 A2988 RMK A01 T04010175  RH  027%=      5-min Rain = 0
KES1 141927Z 04006KT 40/18 A2988 RMK A01 T04040178  RH  027%=      5-min Rain = 0
KES1 141928Z 05005G10KT 41/18 A2988 RMK A01 T04060179  RH  027%=      5-min Rain = 0
KES1 141929Z 07007KT 41/18 A2988 RMK A01 T04070180  RH  027%=      5-min Rain = 0
KES1 141930Z 09004KT 41/18 A2988 RMK A01 T04050178  RH  027%=      5-min Rain = 0
KES1 141931Z 09003KT 40/18 A2988 RMK A01 T04020179  RH  027%=      5-min Rain = 0
KES1 141932Z 07006KT 41/18 A2988 RMK A01 T04050180  RH  027%=      5-min Rain = 0
KES1 141933Z 09007KT 41/18 A2988 RMK A01 T04070180  RH  027%=      5-min Rain = 0
KES1 141934Z 11007KT 41/18 A2988 RMK A01 T04060180  RH  027%=      5-min Rain = 0
KES1 141935Z 08009KT 41/18 A2988 RMK A01 T04070178  RH  027%=      5-min Rain = 0
KES1 141936Z 08011G17KT 41/18 A2988 RMK A01 T04080177  RH  026%=      5-min Rain = 0
KES1 141937Z 08013KT 41/18 A2988 RMK A01 T04080176  RH  026%=      5-min Rain = 0
KES1 141938Z 07007KT 41/17 A2988 RMK A01 T04050174  RH  026%=      5-min Rain = 0
KES1 141939Z 07004KT 40/17 A2988 RMK A01 T04040173  RH  026%=      5-min Rain = 0
KES1 141940Z 07006KT 40/18 A2988 RMK A01 T04030175  RH  026%=      5-min Rain = 0
KES1 141941Z 04008KT 41/18 A2988 RMK A01 T04050176  RH  027%=      5-min Rain = 0
KES1 141942Z 04009KT 41/18 A2987 RMK A01 T04080176  RH  026%=      5-min Rain = 0
KES1 141943Z 06009G15KT 41/18 A2987 RMK A01 T04090176  RH  026%=      5-min Rain = 0
KES1 141944Z 08012KT 41/17 A2987 RMK A01 T04120172  RH  025%=      5-min Rain = 0
KES1 141945Z 08007KT 41/17 A2987 RMK A01 T04080168  RH  025%=      5-min Rain = 0
KES1 141946Z 07005KT 41/17 A2987 RMK A01 T04070170  RH  025%=      5-min Rain = 0
KES1 141947Z 07009KT 41/17 A2987 RMK A01 T04110169  RH  025%=      5-min Rain = 0
KES1 141948Z 08010KT 41/17 A2987 RMK A01 T04110165  RH  024%=      5-min Rain = 0
KES1 141949Z 08009KT 41/17 A2987 RMK A01 T04090166  RH  024%=      5-min Rain = 0
KES1 141950Z 08011KT 41/17 A2987 RMK A01 T04120166  RH  024%=      5-min Rain = 0
KES1 141951Z 06011KT 41/17 A2987 RMK A01 T04110166  RH  024%=      5-min Rain = 0
KES1 141952Z 06008KT 41/17 A2987 RMK A01 T04100165  RH  024%=      5-min Rain = 0
KES1 141953Z 07008KT 41/16 A2987 RMK A01 T04080164  RH  024%=      5-min Rain = 0
KES1 141954Z 06003KT 41/16 A2987 RMK A01 T04080164  RH  024%=      5-min Rain = 0
KES1 141955Z 09006KT 41/17 A2987 RMK A01 T04120166  RH  024%=      5-min Rain = 0
KES1 141956Z 09009KT 41/17 A2987 RMK A01 T04120166  RH  024%=      5-min Rain = 0
KES1 141957Z 09011KT 41/17 A2987 RMK A01 T04110167  RH  024%=      5-min Rain = 0
KES1 141958Z 08010KT 41/17 A2987 RMK A01 T04120168  RH  024%=      5-min Rain = 0
KES1 141959Z 08008KT 41/17 A2986 RMK A01 T04120169  RH  024%=      5-min Rain = 0
KES1 142000Z 10007KT 41/17 A2986 RMK A01 T04100170  RH  025%=      5-min Rain = 0
KES1 142001Z 09004KT 41/17 A2986 RMK A01 T04080166  RH  025%=      5-min Rain = 0
KES1 142002Z 08004KT 41/17 A2986 RMK A01 T04080168  RH  025%=      5-min Rain = 0
KES1 142003Z 06002KT 41/17 A2986 RMK A01 T04080170  RH  025%=      5-min Rain = 0
KES1 142004Z 10005G12KT 41/17 A2986 RMK A01 T04090171  RH  025%=      5-min Rain = 0
KES1 142005Z 11011KT 41/17 A2986 RMK A01 T04100171  RH  025%=      5-min Rain = 0
KES1 142006Z 09009KT 41/18 A2986 RMK A01 T04080175  RH  026%=      5-min Rain = 0
KES1 142007Z 09007KT 41/17 A2986 RMK A01 T04090174  RH  026%=      5-min Rain = 0
KES1 142008Z 11008KT 42/17 A2986 RMK A01 T04150173  RH  025%=      5-min Rain = 0
KES1 142009Z 09007KT 42/17 A2986 RMK A01 T04170173  RH  024%=      5-min Rain = 0
KES1 142010Z 10008KT 42/17 A2986 RMK A01 T04180172  RH  024%=      5-min Rain = 0
KES1 142011Z 08008KT 42/17 A2986 RMK A01 T04180170  RH  024%=      5-min Rain = 0
KES1 142012Z 07009KT 42/17 A2986 RMK A01 T04160171  RH  024%=      5-min Rain = 0
KES1 142013Z 08009KT 42/17 A2986 RMK A01 T04160170  RH  024%=      5-min Rain = 0
KES1 142014Z 12010KT 41/17 A2986 RMK A01 T04130167  RH  024%=      5-min Rain = 0
KES1 142015Z 13011KT 41/17 A2986 RMK A01 T04120165  RH  024%=      5-min Rain = 0
KES1 142016Z 14009KT 41/17 A2986 RMK A01 T04140167  RH  024%=      5-min Rain = 0
KES1 142017Z 13006KT 42/17 A2986 RMK A01 T04160166  RH  023%=      5-min Rain = 0
KES1 142018Z 12010KT 42/17 A2986 RMK A01 T04170166  RH  023%=      5-min Rain = 0
KES1 142019Z 12008KT 42/17 A2986 RMK A01 T04190168  RH  023%=      5-min Rain = 0
KES1 142020Z 10011KT 42/17 A2985 RMK A01 T04200170  RH  024%=      5-min Rain = 0
KES1 142021Z 10009KT 42/17 A2985 RMK A01 T04160171  RH  024%=      5-min Rain = 0
KES1 142022Z 08012KT 41/17 A2985 RMK A01 T04130174  RH  025%=      5-min Rain = 0
KES1 142023Z 09011KT 41/18 A2985 RMK A01 T04120175  RH  025%=      5-min Rain = 0
KES1 142024Z 13006KT 41/17 A2985 RMK A01 T04110171  RH  025%=      5-min Rain = 0
KES1 142025Z 12004KT 41/17 A2985 RMK A01 T04090171  RH  025%=      5-min Rain = 0
KES1 142026Z 11006KT 41/17 A2985 RMK A01 T04080172  RH  025%=      5-min Rain = 0
KES1 142027Z 11007KT 41/17 A2985 RMK A01 T04080173  RH  026%=      5-min Rain = 0
KES1 142028Z 12007KT 41/17 A2985 RMK A01 T04070173  RH  026%=      5-min Rain = 0
KES1 142029Z 09007KT 40/17 A2985 RMK A01 T04040171  RH  026%=      5-min Rain = 0
KES1 142030Z 09007KT 40/17 A2985 RMK A01 T04030172  RH  026%=      5-min Rain = 0
KES1 142031Z 09009KT 40/17 A2985 RMK A01 T04040171  RH  026%=      5-min Rain = 0
KES1 142032Z 13007KT 40/17 A2985 RMK A01 T04040170  RH  026%=      5-min Rain = 0
KES1 142033Z 13006KT 40/17 A2984 RMK A01 T04030171  RH  026%=      5-min Rain = 0
KES1 142034Z 14008KT 41/17 A2984 RMK A01 T04050170  RH  026%=      5-min Rain = 0
KES1 142035Z 13007KT 41/17 A2984 RMK A01 T04050167  RH  025%=      5-min Rain = 0
KES1 142036Z 11005KT 40/17 A2984 RMK A01 T04030167  RH  025%=      5-min Rain = 0
KES1 142037Z 10010KT 40/17 A2984 RMK A01 T04030168  RH  025%=      5-min Rain = 0
KES1 142038Z 09008KT 40/17 A2984 RMK A01 T04010168  RH  026%=      5-min Rain = 0
KES1 142039Z 09008KT 40/17 A2984 RMK A01 T03980168  RH  026%=      5-min Rain = 0
KES1 142040Z 09007KT 40/17 A2984 RMK A01 T03970168  RH  026%=      5-min Rain = 0
KES1 142041Z 11010KT 40/17 A2985 RMK A01 T03980168  RH  026%=      5-min Rain = 0
KES1 142042Z 12008KT 40/17 A2985 RMK A01 T03980165  RH  026%=      5-min Rain = 0
KES1 142043Z 12006KT 40/17 A2985 RMK A01 T03970165  RH  026%=      5-min Rain = 0
KES1 142044Z 12007KT 40/17 A2985 RMK A01 T03960165  RH  026%=      5-min Rain = 0
KES1 142045Z 12006KT 40/17 A2985 RMK A01 T03960165  RH  026%=      5-min Rain = 0
KES1 142046Z 11006KT 40/17 A2985 RMK A01 T03970166  RH  026%=      5-min Rain = 0
KES1 142047Z 11007KT 40/17 A2985 RMK A01 T03990166  RH  026%=      5-min Rain = 0
KES1 142048Z 13009KT 40/17 A2985 RMK A01 T04000166  RH  026%=      5-min Rain = 0
KES1 142049Z 13009KT 40/16 A2985 RMK A01 T04000163  RH  025%=      5-min Rain = 0
KES1 142050Z 12008KT 40/16 A2985 RMK A01 T03990164  RH  025%=      5-min Rain = 0
KES1 142051Z 13008KT 40/16 A2985 RMK A01 T03980162  RH  025%=      5-min Rain = 0
KES1 142052Z 10007KT 40/16 A2985 RMK A01 T03970162  RH  025%=      5-min Rain = 0
KES1 142053Z 08007KT 40/17 A2985 RMK A01 T03970165  RH  026%=      5-min Rain = 0
KES1 142054Z 09006KT 40/17 A2985 RMK A01 T03970166  RH  026%=      5-min Rain = 0
KES1 142055Z 09007KT 40/17 A2985 RMK A01 T03970165  RH  026%=      5-min Rain = 0
KES1 142056Z 10007KT 40/17 A2986 RMK A01 T03960165  RH  026%=      5-min Rain = 0
KES1 142057Z 10007KT 40/16 A2986 RMK A01 T03970164  RH  026%=      5-min Rain = 0
KES1 142058Z 09006KT 40/16 A2986 RMK A01 T03960164  RH  026%=      5-min Rain = 0
KES1 142059Z 09006KT 40/16 A2986 RMK A01 T03960164  RH  026%=      5-min Rain = 0
KES1 142100Z 11005KT 40/16 A2986 RMK A01 T03960161  RH  025%=      5-min Rain = 0
KES1 142101Z 13006KT 40/16 A2986 RMK A01 T03960161  RH  025%=      5-min Rain = 0
KES1 142102Z 10006KT 40/16 A2985 RMK A01 T03970160  RH  025%=      5-min Rain = 0
KES1 142103Z 09007KT 40/16 A2985 RMK A01 T03970159  RH  025%=      5-min Rain = 0
KES1 142104Z 12008KT 40/16 A2985 RMK A01 T03960157  RH  025%=      5-min Rain = 0
KES1 142105Z 11009KT 40/16 A2985 RMK A01 T03950156  RH  025%=      5-min Rain = 0
KES1 142106Z 12008KT 40/15 A2985 RMK A01 T03950154  RH  024%=      5-min Rain = 0
KES1 142107Z 13008KT 40/15 A2985 RMK A01 T03950154  RH  024%=      5-min Rain = 0
KES1 142108Z 13007KT 39/16 A2985 RMK A01 T03940155  RH  025%=      5-min Rain = 0
KES1 142109Z 12006KT 39/16 A2985 RMK A01 T03940158  RH  025%=      5-min Rain = 0
KES1 142110Z 12005KT 39/16 A2985 RMK A01 T03930158  RH  025%=      5-min Rain = 0
KES1 142111Z 13006KT 39/16 A2985 RMK A01 T03930158  RH  025%=      5-min Rain = 0
KES1 142112Z 11007KT 39/16 A2985 RMK A01 T03940156  RH  025%=      5-min Rain = 0
KES1 142113Z 11008KT 39/16 A2985 RMK A01 T03940157  RH  025%=      5-min Rain = 0
KES1 142114Z 12009KT 39/16 A2984 RMK A01 T03940158  RH  025%=      5-min Rain = 0
KES1 142115Z 12008KT 39/16 A2984 RMK A01 T03930158  RH  025%=      5-min Rain = 0
KES1 142116Z 11008KT 39/16 A2984 RMK A01 T03930158  RH  025%=      5-min Rain = 0
KES1 142117Z 10006KT 39/16 A2984 RMK A01 T03920158  RH  025%=      5-min Rain = 0
KES1 142118Z 11007KT 39/16 A2984 RMK A01 T03920158  RH  025%=      5-min Rain = 0
KES1 142119Z 12007KT 39/16 A2984 RMK A01 T03920157  RH  025%=      5-min Rain = 0
KES1 142120Z 11006KT 39/16 A2984 RMK A01 T03930157  RH  025%=      5-min Rain = 0
KES1 142121Z 11007KT 39/16 A2984 RMK A01 T03920158  RH  025%=      5-min Rain = 0
KES1 142122Z 10006KT 39/16 A2984 RMK A01 T03920158  RH  025%=      5-min Rain = 0
KES1 142123Z 11007KT 39/16 A2984 RMK A01 T03920159  RH  025%=      5-min Rain = 0
KES1 142124Z 10006KT 39/16 A2984 RMK A01 T03920158  RH  025%=      5-min Rain = 0
KES1 142125Z 07006KT 39/16 A2984 RMK A01 T03920160  RH  026%=      5-min Rain = 0
KES1 142126Z 08007KT 39/17 A2984 RMK A01 T03920167  RH  027%=      5-min Rain = 0
KES1 142127Z 08010KT 39/17 A2984 RMK A01 T03910170  RH  027%=      5-min Rain = 0
KES1 142128Z 08010KT 39/18 A2984 RMK A01 T03890175  RH  029%=      5-min Rain = 0
KES1 142129Z 08007KT 39/18 A2984 RMK A01 T03870176  RH  029%=      5-min Rain = 0
KES1 142130Z 06010G15KT 39/18 A2984 RMK A01 T03860176  RH  029%=      5-min Rain = 0
KES1 142131Z 08012KT 39/18 A2983 RMK A01 T03860176  RH  029%=      5-min Rain = 0
KES1 142132Z 08011KT 39/18 A2983 RMK A01 T03850175  RH  029%=      5-min Rain = 0
KES1 142133Z 07013KT 39/18 A2983 RMK A01 T03850175  RH  029%=      5-min Rain = 0
KES1 142134Z 07013KT 38/17 A2983 RMK A01 T03840174  RH  029%=      5-min Rain = 0
KES1 142135Z 05011KT 38/18 A2983 RMK A01 T03840175  RH  029%=      5-min Rain = 0
KES1 142136Z 05012KT 38/18 A2983 RMK A01 T03840175  RH  030%=      5-min Rain = 0
KES1 142137Z 05013KT 38/17 A2983 RMK A01 T03840174  RH  029%=      5-min Rain = 0
KES1 142138Z 05015KT 38/17 A2983 RMK A01 T03840174  RH  029%=      5-min Rain = 0
KES1 142139Z 06014KT 38/17 A2983 RMK A01 T03840173  RH  029%=      5-min Rain = 0
KES1 142140Z 06011KT 38/17 A2983 RMK A01 T03830172  RH  029%=      5-min Rain = 0
KES1 142141Z 07009KT 38/17 A2983 RMK A01 T03830166  RH  028%=      5-min Rain = 0
KES1 142142Z 07009KT 38/17 A2983 RMK A01 T03840165  RH  028%=      5-min Rain = 0
KES1 142143Z 08011KT 39/17 A2983 RMK A01 T03850170  RH  028%=      5-min Rain = 0
KES1 142144Z 06011G16KT 38/17 A2983 RMK A01 T03840172  RH  029%=      5-min Rain = 0
KES1 142145Z 07013KT 38/17 A2984 RMK A01 T03840172  RH  029%=      5-min Rain = 0
KES1 142146Z 08011KT 38/17 A2984 RMK A01 T03830172  RH  029%=      5-min Rain = 0
KES1 142147Z 08007KT 38/17 A2984 RMK A01 T03820172  RH  029%=      5-min Rain = 0
KES1 142148Z 07007KT 38/17 A2984 RMK A01 T03820172  RH  029%=      5-min Rain = 0
KES1 142149Z 06009KT 38/17 A2984 RMK A01 T03820171  RH  029%=      5-min Rain = 0
KES1 142150Z 07009KT 38/17 A2984 RMK A01 T03820170  RH  029%=      5-min Rain = 0
KES1 142151Z 07008KT 38/17 A2984 RMK A01 T03820167  RH  028%=      5-min Rain = 0
KES1 142152Z 08008KT 38/16 A2984 RMK A01 T03820163  RH  028%=      5-min Rain = 0
KES1 142153Z 09010KT 38/16 A2984 RMK A01 T03830159  RH  027%=      5-min Rain = 0
KES1 142154Z 08010KT 38/16 A2984 RMK A01 T03830156  RH  026%=      5-min Rain = 0
KES1 142155Z 07010KT 38/16 A2984 RMK A01 T03830157  RH  026%=      5-min Rain = 0
KES1 142156Z 07008KT 38/16 A2984 RMK A01 T03830158  RH  026%=      5-min Rain = 0
KES1 142157Z 06008KT 38/16 A2984 RMK A01 T03840162  RH  027%=      5-min Rain = 0
KES1 142158Z 06008KT 38/17 A2984 RMK A01 T03830166  RH  028%=      5-min Rain = 0
KES1 142159Z 06010KT 38/17 A2984 RMK A01 T03810169  RH  029%=      5-min Rain = 0
KES1 142200Z 07010KT 38/17 A2984 RMK A01 T03800168  RH  029%=      5-min Rain = 0
KES1 142201Z 06010KT 38/17 A2984 RMK A01 T03790168  RH  029%=      5-min Rain = 0
KES1 142202Z 06010KT 38/17 A2984 RMK A01 T03790169  RH  029%=      5-min Rain = 0
KES1 142203Z 06012KT 38/17 A2984 RMK A01 T03780169  RH  029%=      5-min Rain = 0
KES1 142204Z 06013KT 38/17 A2984 RMK A01 T03780168  RH  029%=      5-min Rain = 0
KES1 142205Z 06012KT 38/17 A2984 RMK A01 T03780168  RH  029%=      5-min Rain = 0
KES1 142206Z 06013KT 38/17 A2984 RMK A01 T03780168  RH  029%=      5-min Rain = 0
KES1 142207Z 06011KT 38/17 A2984 RMK A01 T03770168  RH  029%=      5-min Rain = 0
KES1 142208Z 07009KT 38/17 A2984 RMK A01 T03770168  RH  029%=      5-min Rain = 0
KES1 142209Z 08009KT 38/17 A2984 RMK A01 T03770168  RH  029%=      5-min Rain = 0
KES1 142210Z 07008KT 38/17 A2984 RMK A01 T03760168  RH  030%=      5-min Rain = 0
KES1 142211Z 07009KT 38/17 A2984 RMK A01 T03760168  RH  030%=      5-min Rain = 0
KES1 142212Z 06008KT 38/17 A2984 RMK A01 T03750168  RH  030%=      5-min Rain = 0
KES1 142213Z 06010KT 38/17 A2984 RMK A01 T03750169  RH  030%=      5-min Rain = 0
KES1 142214Z 05010KT 38/17 A2984 RMK A01 T03750169  RH  030%=      5-min Rain = 0
KES1 142215Z 06011KT 38/17 A2984 RMK A01 T03750169  RH  030%=      5-min Rain = 0
KES1 142216Z 06010KT 38/17 A2984 RMK A01 T03750168  RH  030%=      5-min Rain = 0
KES1 142217Z 07012KT 37/17 A2984 RMK A01 T03740168  RH  030%=      5-min Rain = 0
KES1 142218Z 06011KT 38/17 A2984 RMK A01 T03750169  RH  030%=      5-min Rain = 0
KES1 142219Z 06014KT 38/17 A2984 RMK A01 T03750169  RH  030%=      5-min Rain = 0
KES1 142220Z 06011KT 37/17 A2984 RMK A01 T03740168  RH  030%=      5-min Rain = 0
KES1 142221Z 06011KT 37/17 A2984 RMK A01 T03740168  RH  030%=      5-min Rain = 0
KES1 142222Z 06011KT 37/17 A2984 RMK A01 T03740168  RH  030%=      5-min Rain = 0
KES1 142223Z 06012KT 37/17 A2984 RMK A01 T03740168  RH  030%=      5-min Rain = 0
KES1 142224Z 06011KT 37/17 A2984 RMK A01 T03740168  RH  030%=      5-min Rain = 0
KES1 142225Z 06008KT 37/17 A2984 RMK A01 T03740167  RH  030%=      5-min Rain = 0
KES1 142226Z 06009KT 37/17 A2984 RMK A01 T03740167  RH  030%=      5-min Rain = 0
KES1 142227Z 07009KT 37/17 A2984 RMK A01 T03730167  RH  030%=      5-min Rain = 0
KES1 142228Z 06010KT 37/17 A2984 RMK A01 T03730167  RH  030%=      5-min Rain = 0
KES1 142229Z 07010KT 37/17 A2984 RMK A01 T03730166  RH  030%=      5-min Rain = 0
KES1 142230Z 07008KT 37/17 A2985 RMK A01 T03730166  RH  030%=      5-min Rain = 0
KES1 142231Z 07008KT 37/17 A2985 RMK A01 T03730166  RH  030%=      5-min Rain = 0
KES1 142232Z 07006KT 37/17 A2985 RMK A01 T03720166  RH  030%=      5-min Rain = 0
KES1 142233Z 08006KT 37/17 A2985 RMK A01 T03730166  RH  030%=      5-min Rain = 0
KES1 142234Z 07007KT 37/17 A2985 RMK A01 T03730166  RH  030%=      5-min Rain = 0
KES1 142235Z 08004KT 37/17 A2985 RMK A01 T03720166  RH  030%=      5-min Rain = 0
KES1 142236Z 08004KT 37/17 A2985 RMK A01 T03720167  RH  030%=      5-min Rain = 0
KES1 142237Z 09005KT 37/17 A2985 RMK A01 T03720167  RH  030%=      5-min Rain = 0
KES1 142238Z 09006KT 37/17 A2985 RMK A01 T03710167  RH  030%=      5-min Rain = 0
KES1 142239Z 08006KT 37/17 A2985 RMK A01 T03710167  RH  030%=      5-min Rain = 0
KES1 142240Z 09006KT 37/17 A2985 RMK A01 T03710166  RH  030%=      5-min Rain = 0
KES1 142241Z 08006KT 37/17 A2985 RMK A01 T03710167  RH  030%=      5-min Rain = 0
KES1 142242Z 09004KT 37/17 A2985 RMK A01 T03710166  RH  030%=      5-min Rain = 0
KES1 142243Z 08005KT 37/17 A2985 RMK A01 T03710166  RH  030%=      5-min Rain = 0
KES1 142244Z 09006KT 37/17 A2985 RMK A01 T03710166  RH  030%=      5-min Rain = 0
KES1 142245Z 09006KT 37/17 A2985 RMK A01 T03710166  RH  030%=      5-min Rain = 0
KES1 142246Z 09006KT 37/17 A2985 RMK A01 T03710166  RH  030%=      5-min Rain = 0
KES1 142247Z 09005KT 37/17 A2985 RMK A01 T03710165  RH  030%=      5-min Rain = 0
KES1 142248Z 09004KT 37/17 A2985 RMK A01 T03710166  RH  030%=      5-min Rain = 0
KES1 142249Z 08004KT 37/17 A2985 RMK A01 T03710166  RH  030%=      5-min Rain = 0
KES1 142250Z 09004KT 37/17 A2985 RMK A01 T03710165  RH  030%=      5-min Rain = 0
KES1 142251Z 09005KT 37/16 A2985 RMK A01 T03700164  RH  030%=      5-min Rain = 0
KES1 142252Z 09005KT 37/16 A2985 RMK A01 T03700163  RH  029%=      5-min Rain = 0
KES1 142253Z 09003KT 37/16 A2986 RMK A01 T03700163  RH  029%=      5-min Rain = 0
KES1 142254Z 10003KT 37/16 A2986 RMK A01 T03700163  RH  029%=      5-min Rain = 0
KES1 142255Z 10002KT 37/16 A2986 RMK A01 T03700162  RH  029%=      5-min Rain = 0
KES1 142256Z 13001KT 37/16 A2986 RMK A01 T03710163  RH  029%=      5-min Rain = 0
KES1 142257Z 11002KT 37/16 A2986 RMK A01 T03700162  RH  029%=      5-min Rain = 0
KES1 142258Z 16002KT 37/16 A2985 RMK A01 T03700162  RH  029%=      5-min Rain = 0
KES1 142259Z 15002KT 37/16 A2985 RMK A01 T03700162  RH  029%=      5-min Rain = 0
KES1 142300Z 15002KT 37/16 A2985 RMK A01 T03710161  RH  029%=      5-min Rain = 0
KES1 142301Z 16001KT 37/16 A2985 RMK A01 T03710161  RH  029%=      5-min Rain = 0
KES1 142302Z 19001KT 37/16 A2985 RMK A01 T03710162  RH  029%=      5-min Rain = 0
KES1 142303Z 23002KT 37/16 A2985 RMK A01 T03710163  RH  029%=      5-min Rain = 0
KES1 142304Z 23002KT 37/16 A2985 RMK A01 T03710164  RH  030%=      5-min Rain = 0
KES1 142305Z 24003KT 37/16 A2985 RMK A01 T03700164  RH  030%=      5-min Rain = 0
KES1 142306Z 23003KT 37/16 A2985 RMK A01 T03690163  RH  030%=      5-min Rain = 0
KES1 142307Z 24003KT 37/16 A2985 RMK A01 T03680163  RH  030%=      5-min Rain = 0
KES1 142308Z 24003KT 37/16 A2985 RMK A01 T03680163  RH  030%=      5-min Rain = 0
KES1 142309Z 23002KT 37/16 A2985 RMK A01 T03680163  RH  030%=      5-min Rain = 0
KES1 142310Z 22001KT 37/16 A2985 RMK A01 T03680164  RH  030%=      5-min Rain = 0
KES1 142311Z 22001KT 37/16 A2985 RMK A01 T03670163  RH  030%=      5-min Rain = 0
KES1 142312Z 20001KT 37/16 A2985 RMK A01 T03670163  RH  030%=      5-min Rain = 0
KES1 142313Z 19002KT 37/16 A2984 RMK A01 T03670162  RH  030%=      5-min Rain = 0
KES1 142314Z 20003KT 37/16 A2985 RMK A01 T03670163  RH  030%=      5-min Rain = 0
KES1 142315Z 20003KT 37/16 A2985 RMK A01 T03670163  RH  030%=      5-min Rain = 0
KES1 142316Z 19004KT 37/16 A2984 RMK A01 T03670164  RH  030%=      5-min Rain = 0
KES1 142317Z 18003KT 37/16 A2984 RMK A01 T03670164  RH  030%=      5-min Rain = 0
KES1 142318Z 17003KT 37/17 A2984 RMK A01 T03670165  RH  030%=      5-min Rain = 0
KES1 142319Z 16003KT 37/17 A2984 RMK A01 T03660165  RH  030%=      5-min Rain = 0
KES1 142320Z 14003KT 37/17 A2984 RMK A01 T03650166  RH  031%=      5-min Rain = 0
KES1 142321Z 13003KT 36/17 A2984 RMK A01 T03640166  RH  031%=      5-min Rain = 0
KES1 142322Z 13003KT 36/17 A2984 RMK A01 T03630166  RH  031%=      5-min Rain = 0
KES1 142323Z 13004KT 36/17 A2985 RMK A01 T03630166  RH  031%=      5-min Rain = 0
KES1 142324Z 13004KT 36/17 A2985 RMK A01 T03630165  RH  031%=      5-min Rain = 0
KES1 142325Z 12004KT 36/17 A2985 RMK A01 T03630166  RH  031%=      5-min Rain = 0
KES1 142326Z 11003KT 36/17 A2985 RMK A01 T03630166  RH  031%=      5-min Rain = 0
KES1 142327Z 11002KT 36/17 A2985 RMK A01 T03630165  RH  031%=      5-min Rain = 0
KES1 142328Z 10002KT 36/17 A2985 RMK A01 T03630165  RH  031%=      5-min Rain = 0
KES1 142329Z 09002KT 36/16 A2985 RMK A01 T03640164  RH  031%=      5-min Rain = 0
KES1 142330Z 08001KT 36/16 A2985 RMK A01 T03630164  RH  031%=      5-min Rain = 0
KES1 142331Z 03001KT 36/17 A2985 RMK A01 T03630165  RH  031%=      5-min Rain = 0
KES1 142332Z 34002KT 36/17 A2985 RMK A01 T03640165  RH  031%=      5-min Rain = 0
KES1 142333Z 33002KT 36/17 A2986 RMK A01 T03640165  RH  031%=      5-min Rain = 0
KES1 142334Z 31003KT 36/17 A2986 RMK A01 T03640165  RH  031%=      5-min Rain = 0
KES1 142335Z 32003KT 36/17 A2986 RMK A01 T03640166  RH  031%=      5-min Rain = 0
KES1 142336Z 31004KT 36/17 A2986 RMK A01 T03640167  RH  031%=      5-min Rain = 0
KES1 142337Z 31004KT 36/17 A2986 RMK A01 T03640168  RH  032%=      5-min Rain = 0
KES1 142338Z 32004KT 36/17 A2986 RMK A01 T03630170  RH  032%=      5-min Rain = 0
KES1 142339Z 32004KT 36/17 A2986 RMK A01 T03630171  RH  032%=      5-min Rain = 0
KES1 142340Z 32004KT 36/17 A2986 RMK A01 T03620170  RH  032%=      5-min Rain = 0
KES1 142341Z 32004KT 36/17 A2986 RMK A01 T03620169  RH  032%=      5-min Rain = 0
KES1 142342Z 31004KT 36/17 A2986 RMK A01 T03620169  RH  032%=      5-min Rain = 0
KES1 142343Z 32004KT 36/17 A2987 RMK A01 T03620168  RH  032%=      5-min Rain = 0
KES1 142344Z 32004KT 36/17 A2987 RMK A01 T03620168  RH  032%=      5-min Rain = 0
KES1 142345Z 32003KT 36/17 A2987 RMK A01 T03620167  RH  032%=      5-min Rain = 0
KES1 142346Z 31004KT 36/17 A2987 RMK A01 T03630167  RH  031%=      5-min Rain = 0
KES1 142347Z 31004KT 36/17 A2987 RMK A01 T03620167  RH  032%=      5-min Rain = 0
KES1 142348Z 31004KT 36/17 A2987 RMK A01 T03630168  RH  032%=      5-min Rain = 0
KES1 142349Z 30003KT 36/17 A2987 RMK A01 T03620168  RH  032%=      5-min Rain = 0
KES1 142350Z 30004KT 36/17 A2987 RMK A01 T03620169  RH  032%=      5-min Rain = 0
KES1 142351Z 30003KT 36/17 A2987 RMK A01 T03610169  RH  032%=      5-min Rain = 0
KES1 142352Z 29003KT 36/17 A2987 RMK A01 T03610170  RH  032%=      5-min Rain = 0
KES1 142353Z 29003KT 36/17 A2987 RMK A01 T03600170  RH  033%=      5-min Rain = 0
KES1 142354Z 29003KT 36/17 A2987 RMK A01 T03590171  RH  033%=      5-min Rain = 0
KES1 142355Z 29004KT 36/17 A2987 RMK A01 T03580171  RH  033%=      5-min Rain = 0
KES1 142356Z 29004KT 36/17 A2987 RMK A01 T03570169  RH  033%=      5-min Rain = 0
KES1 142357Z 29005KT 36/17 A2987 RMK A01 T03570168  RH  033%=      5-min Rain = 0
KES1 142358Z 28004KT 36/17 A2987 RMK A01 T03570168  RH  033%=      5-min Rain = 0
KES1 142359Z 28004KT 36/17 A2987 RMK A01 T03570169  RH  033%=      5-min Rain = 0
KES1 150000Z 28003KT 36/17 A2987 RMK A01 T03560169  RH  033%=      5-min Rain = 0
KES1 150001Z 27003KT 36/17 A2987 RMK A01 T03560170  RH  033%=      5-min Rain = 0
KES1 150002Z 27004KT 36/17 A2988 RMK A01 T03550170  RH  034%=      5-min Rain = 0
KES1 150003Z 27004KT 35/17 A2988 RMK A01 T03540171  RH  034%=      5-min Rain = 0
KES1 150004Z 27004KT 35/17 A2988 RMK A01 T03540171  RH  034%=      5-min Rain = 0
KES1 150005Z 28005KT 35/17 A2987 RMK A01 T03530170  RH  034%=      5-min Rain = 0
KES1 150006Z 27004KT 35/17 A2987 RMK A01 T03530168  RH  033%=      5-min Rain = 0
KES1 150007Z 27004KT 35/17 A2987 RMK A01 T03540168  RH  033%=      5-min Rain = 0
KES1 150008Z 28004KT 36/17 A2987 RMK A01 T03550167  RH  033%=      5-min Rain = 0
KES1 150009Z 28003KT 36/17 A2988 RMK A01 T03560167  RH  033%=      5-min Rain = 0
KES1 150010Z 27003KT 36/17 A2988 RMK A01 T03560168  RH  033%=      5-min Rain = 0
KES1 150011Z 26002KT 36/17 A2988 RMK A01 T03560169  RH  033%=      5-min Rain = 0
KES1 150012Z 26002KT 36/17 A2988 RMK A01 T03550169  RH  033%=      5-min Rain = 0
KES1 150013Z 25002KT 36/17 A2988 RMK A01 T03550168  RH  033%=      5-min Rain = 0
KES1 150014Z 25002KT 36/17 A2988 RMK A01 T03550167  RH  033%=      5-min Rain = 0
KES1 150015Z 21001KT 36/17 A2988 RMK A01 T03550168  RH  033%=      5-min Rain = 0
KES1 150016Z 22002KT 36/16 A2988 RMK A01 T03550164  RH  032%=      5-min Rain = 0
KES1 150017Z 22002KT 36/16 A2987 RMK A01 T03560163  RH  032%=      5-min Rain = 0
KES1 150018Z 21002KT 36/16 A2987 RMK A01 T03570163  RH  032%=      5-min Rain = 0
KES1 150019Z 19004KT 36/16 A2987 RMK A01 T03570164  RH  032%=      5-min Rain = 0
KES1 150020Z 19004KT 36/17 A2987 RMK A01 T03570166  RH  032%=      5-min Rain = 0
KES1 150021Z 20004KT 36/17 A2987 RMK A01 T03570165  RH  032%=      5-min Rain = 0
KES1 150022Z 20004KT 36/16 A2987 RMK A01 T03560164  RH  032%=      5-min Rain = 0
KES1 150023Z 19004KT 36/17 A2987 RMK A01 T03570165  RH  032%=      5-min Rain = 0
KES1 150024Z 20004KT 36/17 A2987 RMK A01 T03560166  RH  032%=      5-min Rain = 0
KES1 150025Z 21004KT 36/17 A2987 RMK A01 T03560166  RH  032%=      5-min Rain = 0
KES1 150026Z 22005KT 36/17 A2988 RMK A01 T03550166  RH  033%=      5-min Rain = 0
KES1 150027Z 21004KT 36/17 A2988 RMK A01 T03550166  RH  033%=      5-min Rain = 0
KES1 150028Z 22005KT 36/17 A2988 RMK A01 T03550167  RH  033%=      5-min Rain = 0
KES1 150029Z 22005KT 35/17 A2988 RMK A01 T03530166  RH  033%=      5-min Rain = 0
KES1 150030Z 22006KT 35/17 A2988 RMK A01 T03530166  RH  033%=      5-min Rain = 0
KES1 150031Z 22006KT 35/17 A2988 RMK A01 T03530165  RH  033%=      5-min Rain = 0
KES1 150032Z 23008KT 35/17 A2988 RMK A01 T03520165  RH  033%=      5-min Rain = 0
KES1 150033Z 23008KT 35/17 A2988 RMK A01 T03520166  RH  033%=      5-min Rain = 0
KES1 150034Z 23008KT 35/17 A2988 RMK A01 T03520167  RH  033%=      5-min Rain = 0
KES1 150035Z 24010KT 35/17 A2987 RMK A01 T03510167  RH  033%=      5-min Rain = 0
KES1 150036Z 23010KT 35/17 A2987 RMK A01 T03510166  RH  033%=      5-min Rain = 0
KES1 150037Z 23011KT 35/17 A2987 RMK A01 T03520166  RH  033%=      5-min Rain = 0
KES1 150038Z 23012KT 35/17 A2987 RMK A01 T03530165  RH  033%=      5-min Rain = 0
KES1 150039Z 23013KT 35/16 A2987 RMK A01 T03530164  RH  033%=      5-min Rain = 0
KES1 150040Z 22013KT 35/17 A2987 RMK A01 T03540165  RH  033%=      5-min Rain = 0
KES1 150041Z 22013KT 35/17 A2986 RMK A01 T03530165  RH  033%=      5-min Rain = 0
KES1 150042Z 21014KT 35/17 A2985 RMK A01 T03530165  RH  033%=      5-min Rain = 0
KES1 150043Z 21015KT 35/17 A2985 RMK A01 T03530166  RH  033%=      5-min Rain = 0
KES1 150044Z 20015KT 35/17 A2984 RMK A01 T03530169  RH  034%=      5-min Rain = 0
KES1 150045Z 20014KT 35/17 A2984 RMK A01 T03520170  RH  034%=      5-min Rain = 0
KES1 150046Z 19014KT 35/17 A2984 RMK A01 T03500169  RH  034%=      5-min Rain = 0
KES1 150047Z 19015KT 35/17 A2984 RMK A01 T03490167  RH  034%=      5-min Rain = 0
KES1 150048Z 19016G21KT 35/16 A2984 RMK A01 T03500155  RH  031%=      5-min Rain = 0
KES1 150049Z 19018KT 36/14 A2984 RMK A01 T03570136  RH  027%=      5-min Rain = 0
KES1 150050Z 19013G19KT 37/14 A2984 RMK A01 T03650137  RH  026%=      5-min Rain = 0
KES1 150051Z 20013G18KT 37/14 A2984 RMK A01 T03670142  RH  026%=      5-min Rain = 0
KES1 150052Z 21014KT 37/14 A2985 RMK A01 T03670135  RH  025%=      5-min Rain = 0
KES1 150053Z 20012G19KT 37/15 A2985 RMK A01 T03650147  RH  027%=      5-min Rain = 0
KES1 150054Z 20014G21KT 36/15 A2985 RMK A01 T03600148  RH  028%=      5-min Rain = 0
KES1 150055Z 21014KT 36/14 A2985 RMK A01 T03560141  RH  028%=      5-min Rain = 0
KES1 150056Z 21015KT 35/14 A2985 RMK A01 T03530137  RH  027%=      5-min Rain = 0
KES1 150057Z 21014KT 35/13 A2985 RMK A01 T03520132  RH  027%=      5-min Rain = 0
KES1 150058Z 21013KT 35/13 A2985 RMK A01 T03520127  RH  026%=      5-min Rain = 0
KES1 150059Z 22013G18KT 35/13 A2985 RMK A01 T03510125  RH  026%=      5-min Rain = 0
KES1 150100Z 22013KT 35/12 A2985 RMK A01 T03500124  RH  026%=      5-min Rain = 0
KES1 150101Z 22012KT 35/12 A2985 RMK A01 T03500123  RH  026%=      5-min Rain = 0
KES1 150102Z 23012KT 35/12 A2986 RMK A01 T03490123  RH  026%=      5-min Rain = 0
KES1 150103Z 23010KT 35/12 A2986 RMK A01 T03490123  RH  026%=      5-min Rain = 0
KES1 150104Z 23008KT 35/12 A2986 RMK A01 T03490122  RH  025%=      5-min Rain = 0
KES1 150105Z 23007KT 35/12 A2986 RMK A01 T03510121  RH  025%=      5-min Rain = 0
KES1 150106Z 24007KT 35/12 A2986 RMK A01 T03520119  RH  025%=      5-min Rain = 0
KES1 150107Z 25010G15KT 35/12 A2986 RMK A01 T03530118  RH  024%=      5-min Rain = 0
KES1 150108Z 25012KT 35/12 A2986 RMK A01 T03540118  RH  024%=      5-min Rain = 0
KES1 150109Z 24012KT 35/12 A2987 RMK A01 T03540118  RH  024%=      5-min Rain = 0
KES1 150110Z 24011KT 35/12 A2987 RMK A01 T03540118  RH  024%=      5-min Rain = 0
KES1 150111Z 24011KT 36/12 A2987 RMK A01 T03550117  RH  024%=      5-min Rain = 0
KES1 150112Z 24010KT 36/12 A2987 RMK A01 T03550116  RH  024%=      5-min Rain = 0
KES1 150113Z 24010KT 36/12 A2987 RMK A01 T03550115  RH  024%=      5-min Rain = 0
KES1 150114Z 24010KT 36/12 A2988 RMK A01 T03550115  RH  023%=      5-min Rain = 0
KES1 150115Z 25010KT 36/12 A2988 RMK A01 T03550116  RH  024%=      5-min Rain = 0
KES1 150116Z 25009KT 36/12 A2988 RMK A01 T03550116  RH  024%=      5-min Rain = 0
KES1 150117Z 24010KT 35/12 A2988 RMK A01 T03540116  RH  024%=      5-min Rain = 0
KES1 150118Z 24009KT 36/12 A2988 RMK A01 T03550115  RH  024%=      5-min Rain = 0
KES1 150119Z 25007KT 36/11 A2988 RMK A01 T03550114  RH  023%=      5-min Rain = 0
KES1 150120Z 25005KT 36/11 A2988 RMK A01 T03550114  RH  023%=      5-min Rain = 0
KES1 150121Z 25005KT 36/11 A2988 RMK A01 T03550113  RH  023%=      5-min Rain = 0
KES1 150122Z 25005KT 36/11 A2988 RMK A01 T03550112  RH  023%=      5-min Rain = 0
KES1 150123Z 26003KT 36/11 A2988 RMK A01 T03550113  RH  023%=      5-min Rain = 0
KES1 150124Z 31004KT 36/11 A2988 RMK A01 T03550114  RH  023%=      5-min Rain = 0
KES1 150125Z 35005KT 35/12 A2988 RMK A01 T03540117  RH  024%=      5-min Rain = 0
KES1 150126Z 35007KT 35/12 A2988 RMK A01 T03510118  RH  025%=      5-min Rain = 0
KES1 150127Z 35007KT 35/12 A2988 RMK A01 T03480117  RH  025%=      5-min Rain = 0
KES1 150128Z 35007KT 35/12 A2988 RMK A01 T03470117  RH  025%=      5-min Rain = 0
KES1 150129Z 35006KT 35/12 A2988 RMK A01 T03460117  RH  025%=      5-min Rain = 0
KES1 150130Z 33004KT 35/12 A2989 RMK A01 T03460117  RH  025%=      5-min Rain = 0
KES1 150131Z 33003KT 35/12 A2989 RMK A01 T03460117  RH  025%=      5-min Rain = 0
KES1 150132Z 34001KT 35/12 A2989 RMK A01 T03450117  RH  025%=      5-min Rain = 0
KES1 150133Z 32000KT 35/12 A2989 RMK A01 T03450116  RH  025%=      5-min Rain = 0
KES1 150134Z 17002KT 35/12 A2989 RMK A01 T03450116  RH  025%=      5-min Rain = 0
KES1 150135Z 14005KT 34/12 A2989 RMK A01 T03440118  RH  025%=      5-min Rain = 0
KES1 150136Z 14005KT 34/12 A2989 RMK A01 T03410119  RH  026%=      5-min Rain = 0
KES1 150137Z 15006KT 34/12 A2989 RMK A01 T03400119  RH  026%=      5-min Rain = 0
KES1 150138Z 15006KT 34/12 A2989 RMK A01 T03390119  RH  026%=      5-min Rain = 0
KES1 150139Z 16007KT 34/12 A2989 RMK A01 T03390120  RH  026%=      5-min Rain = 0
KES1 150140Z 16008KT 34/12 A2989 RMK A01 T03380120  RH  027%=      5-min Rain = 0
KES1 150141Z 16008KT 34/12 A2989 RMK A01 T03370121  RH  027%=      5-min Rain = 0
KES1 150142Z 16006KT 34/12 A2989 RMK A01 T03380122  RH  027%=      5-min Rain = 0
KES1 150143Z 17004KT 34/12 A2989 RMK A01 T03390121  RH  027%=      5-min Rain = 0
KES1 150144Z 17007KT 34/12 A2989 RMK A01 T03400121  RH  027%=      5-min Rain = 0
KES1 150145Z 20005KT 34/12 A2989 RMK A01 T03400119  RH  026%=      5-min Rain = 0
KES1 150146Z 20005KT 34/12 A2989 RMK A01 T03410119  RH  026%=      5-min Rain = 0
KES1 150147Z 21005KT 34/12 A2989 RMK A01 T03410118  RH  026%=      5-min Rain = 0
KES1 150148Z 19005KT 34/12 A2989 RMK A01 T03410117  RH  026%=      5-min Rain = 0
KES1 150149Z 18005KT 34/12 A2989 RMK A01 T03410118  RH  026%=      5-min Rain = 0
KES1 150150Z 21005KT 34/12 A2989 RMK A01 T03400118  RH  026%=      5-min Rain = 0
KES1 150151Z 22006KT 34/12 A2989 RMK A01 T03380119  RH  026%=      5-min Rain = 0
KES1 150152Z 20005KT 34/12 A2989 RMK A01 T03360119  RH  027%=      5-min Rain = 0
KES1 150153Z 19005KT 34/12 A2989 RMK A01 T03350118  RH  027%=      5-min Rain = 0
KES1 150154Z 18006KT 34/12 A2989 RMK A01 T03350119  RH  027%=      5-min Rain = 0
KES1 150155Z 19005KT 34/12 A2989 RMK A01 T03350119  RH  027%=      5-min Rain = 0
KES1 150156Z 19005KT 34/12 A2989 RMK A01 T03350120  RH  027%=      5-min Rain = 0
KES1 150157Z 21004KT 34/12 A2989 RMK A01 T03350120  RH  027%=      5-min Rain = 0
KES1 150158Z 20004KT 34/12 A2989 RMK A01 T03350120  RH  027%=      5-min Rain = 0
KES1 150159Z 19004KT 33/12 A2989 RMK A01 T03340120  RH  027%=      5-min Rain = 0
KES1 150200Z 19005KT 33/12 A2989 RMK A01 T03330121  RH  027%=      5-min Rain = 0
KES1 150201Z 19006KT 33/12 A2989 RMK A01 T03320120  RH  028%=      5-min Rain = 0
KES1 150202Z 19005KT 33/12 A2989 RMK A01 T03330121  RH  028%=      5-min Rain = 0
KES1 150203Z 20004KT 33/12 A2989 RMK A01 T03340121  RH  027%=      5-min Rain = 0
KES1 150204Z 19004KT 33/12 A2989 RMK A01 T03340122  RH  028%=      5-min Rain = 0
KES1 150205Z 18004KT 33/12 A2988 RMK A01 T03320122  RH  028%=      5-min Rain = 0
KES1 150206Z 19006KT 33/12 A2988 RMK A01 T03310122  RH  028%=      5-min Rain = 0
KES1 150207Z 19006KT 33/12 A2988 RMK A01 T03300122  RH  028%=      5-min Rain = 0
KES1 150208Z 19006KT 33/12 A2988 RMK A01 T03290122  RH  028%=      5-min Rain = 0
KES1 150209Z 17006KT 33/12 A2988 RMK A01 T03280123  RH  029%=      5-min Rain = 0
KES1 150210Z 17005KT 33/12 A2988 RMK A01 T03280123  RH  029%=      5-min Rain = 0
KES1 150211Z 18005KT 33/12 A2988 RMK A01 T03270123  RH  029%=      5-min Rain = 0
KES1 150212Z 18005KT 33/12 A2988 RMK A01 T03270123  RH  029%=      5-min Rain = 0
KES1 150213Z 17004KT 33/12 A2988 RMK A01 T03260122  RH  029%=      5-min Rain = 0
KES1 150214Z 16004KT 33/12 A2988 RMK A01 T03260123  RH  029%=      5-min Rain = 0
KES1 150215Z 16004KT 33/12 A2988 RMK A01 T03260123  RH  029%=      5-min Rain = 0
KES1 150216Z 17004KT 33/12 A2988 RMK A01 T03260123  RH  029%=      5-min Rain = 0
KES1 150217Z 18004KT 33/12 A2988 RMK A01 T03250123  RH  029%=      5-min Rain = 0
KES1 150218Z 18002KT 33/12 A2988 RMK A01 T03250123  RH  029%=      5-min Rain = 0
KES1 150219Z 18003KT 32/12 A2988 RMK A01 T03240123  RH  029%=      5-min Rain = 0
KES1 150220Z 18003KT 32/12 A2988 RMK A01 T03240124  RH  029%=      5-min Rain = 0
KES1 150221Z 17003KT 32/12 A2988 RMK A01 T03240123  RH  030%=      5-min Rain = 0
KES1 150222Z 16003KT 32/12 A2988 RMK A01 T03230124  RH  030%=      5-min Rain = 0
KES1 150223Z 15003KT 32/12 A2988 RMK A01 T03220123  RH  030%=      5-min Rain = 0
KES1 150224Z 14005KT 32/12 A2988 RMK A01 T03210124  RH  030%=      5-min Rain = 0
KES1 150225Z 15006KT 32/12 A2988 RMK A01 T03190123  RH  030%=      5-min Rain = 0
KES1 150226Z 15007KT 32/12 A2988 RMK A01 T03170123  RH  031%=      5-min Rain = 0
KES1 150227Z 16006KT 32/12 A2988 RMK A01 T03160124  RH  031%=      5-min Rain = 0
KES1 150228Z 16006KT 32/12 A2988 RMK A01 T03150123  RH  031%=      5-min Rain = 0
KES1 150229Z 16006KT 32/12 A2988 RMK A01 T03150124  RH  031%=      5-min Rain = 0
KES1 150230Z 16005KT 32/12 A2988 RMK A01 T03150124  RH  031%=      5-min Rain = 0
KES1 150231Z 16005KT 31/12 A2988 RMK A01 T03140124  RH  031%=      5-min Rain = 0
KES1 150232Z 16005KT 31/12 A2988 RMK A01 T03140124  RH  031%=      5-min Rain = 0
KES1 150233Z 16005KT 31/13 A2988 RMK A01 T03140125  RH  031%=      5-min Rain = 0
KES1 150234Z 16005KT 31/12 A2988 RMK A01 T03130124  RH  032%=      5-min Rain = 0
KES1 150235Z 17006KT 31/12 A2988 RMK A01 T03120124  RH  032%=      5-min Rain = 0
KES1 150236Z 17006KT 31/12 A2988 RMK A01 T03120124  RH  032%=      5-min Rain = 0
KES1 150237Z 17006KT 31/12 A2988 RMK A01 T03110124  RH  032%=      5-min Rain = 0
KES1 150238Z 16007KT 31/12 A2988 RMK A01 T03110124  RH  032%=      5-min Rain = 0
KES1 150239Z 16006KT 31/12 A2989 RMK A01 T03090124  RH  032%=      5-min Rain = 0
KES1 150240Z 18006KT 31/12 A2989 RMK A01 T03080124  RH  032%=      5-min Rain = 0
KES1 150241Z 18006KT 31/12 A2989 RMK A01 T03080124  RH  032%=      5-min Rain = 0
KES1 150242Z 18007KT 31/12 A2989 RMK A01 T03080124  RH  032%=      5-min Rain = 0
KES1 150243Z 18006KT 31/12 A2989 RMK A01 T03100124  RH  032%=      5-min Rain = 0
KES1 150244Z 19005KT 31/12 A2989 RMK A01 T03110124  RH  032%=      5-min Rain = 0
KES1 150245Z 20004KT 31/12 A2989 RMK A01 T03110124  RH  032%=      5-min Rain = 0
KES1 150246Z 21005KT 31/12 A2989 RMK A01 T03110124  RH  032%=      5-min Rain = 0
KES1 150247Z 20005KT 31/12 A2989 RMK A01 T03090124  RH  032%=      5-min Rain = 0
KES1 150248Z 20005KT 31/12 A2989 RMK A01 T03090124  RH  032%=      5-min Rain = 0
KES1 150249Z 20006KT 31/12 A2989 RMK A01 T03090124  RH  032%=      5-min Rain = 0
KES1 150250Z 20006KT 31/12 A2989 RMK A01 T03090123  RH  032%=      5-min Rain = 0
KES1 150251Z 20005KT 31/12 A2989 RMK A01 T03100123  RH  032%=      5-min Rain = 0
KES1 150252Z 19006KT 31/12 A299 RMK A01 T03100123  RH  032%=      5-min Rain = 0
KES1 150253Z 18006KT 31/12 A299 RMK A01 T03100123  RH  032%=      5-min Rain = 0
KES1 150254Z 16006KT 31/12 A299 RMK A01 T03100123  RH  032%=      5-min Rain = 0
KES1 150255Z 16006KT 31/12 A299 RMK A01 T03080123  RH  032%=      5-min Rain = 0
KES1 150256Z 16006KT 31/12 A299 RMK A01 T03060123  RH  033%=      5-min Rain = 0
KES1 150257Z 17006KT 30/12 A299 RMK A01 T03040123  RH  033%=      5-min Rain = 0
KES1 150258Z 17005KT 30/12 A299 RMK A01 T03040123  RH  033%=      5-min Rain = 0
KES1 150259Z 18006KT 30/12 A299 RMK A01 T03030123  RH  033%=      5-min Rain = 0
KES1 150300Z 18006KT 30/12 A299 RMK A01 T03030122  RH  033%=      5-min Rain = 0
KES1 150301Z 19007KT 30/12 A299 RMK A01 T03040122  RH  033%=      5-min Rain = 0
KES1 150302Z 20006KT 31/12 A299 RMK A01 T03050122  RH  032%=      5-min Rain = 0
KES1 150303Z 20006KT 31/12 A299 RMK A01 T03050122  RH  032%=      5-min Rain = 0
KES1 150304Z 20005KT 31/12 A299 RMK A01 T03060122  RH  032%=      5-min Rain = 0
KES1 150305Z 20005KT 31/12 A2991 RMK A01 T03060122  RH  032%=      5-min Rain = 0
KES1 150306Z 21006KT 31/12 A2991 RMK A01 T03050122  RH  033%=      5-min Rain = 0
KES1 150307Z 21006KT 30/12 A2991 RMK A01 T03040122  RH  033%=      5-min Rain = 0
KES1 150308Z 21006KT 30/12 A2991 RMK A01 T03040122  RH  033%=      5-min Rain = 0
KES1 150309Z 20005KT 30/12 A2991 RMK A01 T03040122  RH  033%=      5-min Rain = 0
KES1 150310Z 19005KT 30/12 A2991 RMK A01 T03040122  RH  033%=      5-min Rain = 0
KES1 150311Z 18005KT 30/12 A2991 RMK A01 T03040122  RH  033%=      5-min Rain = 0
KES1 150312Z 17004KT 30/12 A2991 RMK A01 T03030123  RH  033%=      5-min Rain = 0
KES1 150313Z 16004KT 30/12 A2991 RMK A01 T03010123  RH  033%=      5-min Rain = 0
KES1 150314Z 17005KT 30/12 A2991 RMK A01 T02980123  RH  034%=      5-min Rain = 0
KES1 150315Z 17006KT 30/12 A2991 RMK A01 T02960123  RH  034%=      5-min Rain = 0
KES1 150316Z 17005KT 29/12 A2991 RMK A01 T02940123  RH  035%=      5-min Rain = 0
KES1 150317Z 17004KT 29/12 A2992 RMK A01 T02930122  RH  035%=      5-min Rain = 0
KES1 150318Z 17004KT 29/12 A2991 RMK A01 T02930123  RH  035%=      5-min Rain = 0
KES1 150319Z 17004KT 29/12 A2991 RMK A01 T02930123  RH  035%=      5-min Rain = 0
KES1 150320Z 18004KT 29/12 A2991 RMK A01 T02920123  RH  035%=      5-min Rain = 0
KES1 150321Z 18004KT 29/12 A2991 RMK A01 T02920123  RH  035%=      5-min Rain = 0
KES1 150322Z 18005KT 29/12 A2991 RMK A01 T02920123  RH  035%=      5-min Rain = 0
KES1 150323Z 19005KT 29/12 A2991 RMK A01 T02930123  RH  035%=      5-min Rain = 0
KES1 150324Z 19005KT 29/12 A2991 RMK A01 T02940122  RH  035%=      5-min Rain = 0
KES1 150325Z 19005KT 29/12 A2991 RMK A01 T02940123  RH  035%=      5-min Rain = 0
KES1 150326Z 19005KT 30/12 A2991 RMK A01 T02950122  RH  034%=      5-min Rain = 0
KES1 150327Z 19005KT 30/12 A2991 RMK A01 T02960122  RH  034%=      5-min Rain = 0
KES1 150328Z 19005KT 30/12 A2991 RMK A01 T02970123  RH  034%=      5-min Rain = 0
KES1 150329Z 19005KT 30/12 A2991 RMK A01 T02960122  RH  034%=      5-min Rain = 0
KES1 150330Z 18005KT 30/12 A2991 RMK A01 T02970123  RH  034%=      5-min Rain = 0
KES1 150331Z 18004KT 30/12 A2992 RMK A01 T02970123  RH  034%=      5-min Rain = 0
KES1 150332Z 19005KT 30/12 A2992 RMK A01 T02960123  RH  034%=      5-min Rain = 0
KES1 150333Z 20004KT 30/12 A2992 RMK A01 T02950123  RH  034%=      5-min Rain = 0
KES1 150334Z 21004KT 30/12 A2992 RMK A01 T02960123  RH  034%=      5-min Rain = 0
KES1 150335Z 22005KT 30/12 A2992 RMK A01 T02960123  RH  035%=      5-min Rain = 0
KES1 150336Z 22005KT 30/12 A2992 RMK A01 T02950122  RH  034%=      5-min Rain = 0
KES1 150337Z 22004KT 30/12 A2992 RMK A01 T02950122  RH  034%=      5-min Rain = 0
KES1 150338Z 22004KT 30/12 A2992 RMK A01 T02950122  RH  034%=      5-min Rain = 0
KES1 150339Z 22004KT 29/12 A2992 RMK A01 T02940122  RH  035%=      5-min Rain = 0
KES1 150340Z 21004KT 29/12 A2992 RMK A01 T02940122  RH  035%=      5-min Rain = 0
KES1 150341Z 22004KT 29/12 A2992 RMK A01 T02940122  RH  035%=      5-min Rain = 0
KES1 150342Z 22003KT 29/12 A2992 RMK A01 T02940122  RH  035%=      5-min Rain = 0
KES1 150343Z 22004KT 29/12 A2992 RMK A01 T02930122  RH  035%=      5-min Rain = 0
KES1 150344Z 22004KT 29/12 A2992 RMK A01 T02920122  RH  035%=      5-min Rain = 0
KES1 150345Z 23004KT 29/12 A2992 RMK A01 T02920122  RH  035%=      5-min Rain = 0
KES1 150346Z 23003KT 29/12 A2993 RMK A01 T02910122  RH  035%=      5-min Rain = 0
KES1 150347Z 24003KT 29/12 A2993 RMK A01 T02900122  RH  035%=      5-min Rain = 0
KES1 150348Z 24003KT 29/12 A2993 RMK A01 T02900122  RH  035%=      5-min Rain = 0
KES1 150349Z 25003KT 29/12 A2993 RMK A01 T02890122  RH  036%=      5-min Rain = 0
KES1 150350Z 25002KT 29/12 A2993 RMK A01 T02890122  RH  036%=      5-min Rain = 0
KES1 150351Z 26002KT 29/12 A2993 RMK A01 T02880122  RH  036%=      5-min Rain = 0
KES1 150352Z 28002KT 29/12 A2993 RMK A01 T02880122  RH  036%=      5-min Rain = 0
KES1 150353Z 28002KT 29/12 A2993 RMK A01 T02880122  RH  036%=      5-min Rain = 0
KES1 150354Z 29002KT 29/12 A2993 RMK A01 T02860121  RH  036%=      5-min Rain = 0
KES1 150355Z 30002KT 28/12 A2993 RMK A01 T02840121  RH  036%=      5-min Rain = 0
KES1 150356Z 30002KT 28/12 A2993 RMK A01 T02830121  RH  037%=      5-min Rain = 0
KES1 150357Z 33004KT 28/12 A2993 RMK A01 T02810122  RH  037%=      5-min Rain = 0
KES1 150358Z 33005KT 28/12 A2993 RMK A01 T02800122  RH  037%=      5-min Rain = 0
KES1 150359Z 33004KT 28/12 A2993 RMK A01 T02790122  RH  038%=      5-min Rain = 0
KES1 150400Z 33003KT 28/12 A2993 RMK A01 T02780123  RH  038%=      5-min Rain = 0
KES1 150401Z 33003KT 28/12 A2993 RMK A01 T02760122  RH  039%=      5-min Rain = 0
KES1 150402Z 34002KT 28/12 A2993 RMK A01 T02750122  RH  039%=      5-min Rain = 0
KES1 150403Z 34002KT 27/12 A2993 RMK A01 T02740122  RH  039%=      5-min Rain = 0
KES1 150404Z 35002KT 27/12 A2993 RMK A01 T02740122  RH  039%=      5-min Rain = 0
KES1 150405Z 35002KT 27/12 A2993 RMK A01 T02740122  RH  039%=      5-min Rain = 0
KES1 150406Z 33002KT 27/12 A2993 RMK A01 T02710122  RH  040%=      5-min Rain = 0
KES1 150407Z 31003KT 27/12 A2993 RMK A01 T02700122  RH  040%=      5-min Rain = 0
KES1 150408Z 31003KT 27/12 A2993 RMK A01 T02690121  RH  040%=      5-min Rain = 0
KES1 150409Z 31004KT 27/12 A2994 RMK A01 T02700121  RH  040%=      5-min Rain = 0
KES1 150410Z 31005KT 27/12 A2994 RMK A01 T02710121  RH  039%=      5-min Rain = 0
KES1 150411Z 31004KT 27/12 A2994 RMK A01 T02730122  RH  039%=      5-min Rain = 0
KES1 150412Z 31004KT 27/12 A2994 RMK A01 T02740122  RH  039%=      5-min Rain = 0
KES1 150413Z 32003KT 28/12 A2994 RMK A01 T02750122  RH  039%=      5-min Rain = 0
KES1 150414Z 32002KT 28/12 A2993 RMK A01 T02760122  RH  039%=      5-min Rain = 0
KES1 150415Z 30003KT 28/12 A2994 RMK A01 T02760122  RH  038%=      5-min Rain = 0
KES1 150416Z 29003KT 28/12 A2994 RMK A01 T02760122  RH  038%=      5-min Rain = 0
KES1 150417Z 29005KT 28/12 A2994 RMK A01 T02770123  RH  038%=      5-min Rain = 0
KES1 150418Z 29004KT 28/12 A2994 RMK A01 T02770122  RH  038%=      5-min Rain = 0
KES1 150419Z 30004KT 28/12 A2994 RMK A01 T02760122  RH  038%=      5-min Rain = 0
KES1 150420Z 29003KT 28/12 A2994 RMK A01 T02770122  RH  038%=      5-min Rain = 0
KES1 150421Z 30002KT 28/12 A2994 RMK A01 T02770121  RH  038%=      5-min Rain = 0
KES1 150422Z 31001KT 28/12 A2993 RMK A01 T02780122  RH  038%=      5-min Rain = 0
KES1 150423Z 32001KT 28/12 A2993 RMK A01 T02770123  RH  038%=      5-min Rain = 0
KES1 150424Z 30002KT 28/12 A2994 RMK A01 T02750122  RH  039%=      5-min Rain = 0
KES1 150425Z 29001KT 27/12 A2994 RMK A01 T02730122  RH  039%=      5-min Rain = 0
KES1 150426Z 28001KT 27/12 A2994 RMK A01 T02730121  RH  039%=      5-min Rain = 0
KES1 150427Z 28001KT 27/12 A2993 RMK A01 T02730121  RH  039%=      5-min Rain = 0
KES1 150428Z 27001KT 27/12 A2993 RMK A01 T02730121  RH  039%=      5-min Rain = 0
KES1 150429Z 28002KT 27/12 A2993 RMK A01 T02740122  RH  039%=      5-min Rain = 0
KES1 150430Z 28002KT 27/12 A2993 RMK A01 T02740121  RH  039%=      5-min Rain = 0
KES1 150431Z 28001KT 27/12 A2993 RMK A01 T02740121  RH  038%=      5-min Rain = 0
KES1 150432Z 27001KT 28/12 A2993 RMK A01 T02750121  RH  038%=      5-min Rain = 0
KES1 150433Z 28001KT 28/12 A2993 RMK A01 T02760122  RH  038%=      5-min Rain = 0
KES1 150434Z 30002KT 28/12 A2993 RMK A01 T02760122  RH  038%=      5-min Rain = 0
KES1 150435Z 30002KT 28/12 A2993 RMK A01 T02760122  RH  038%=      5-min Rain = 0
KES1 150436Z 31003KT 28/12 A2993 RMK A01 T02760121  RH  038%=      5-min Rain = 0
KES1 150437Z 31003KT 28/12 A2994 RMK A01 T02760119  RH  038%=      5-min Rain = 0
KES1 150438Z 31003KT 28/12 A2994 RMK A01 T02780120  RH  038%=      5-min Rain = 0
KES1 150439Z 31004KT 28/12 A2994 RMK A01 T02790121  RH  037%=      5-min Rain = 0
KES1 150440Z 31004KT 28/12 A2994 RMK A01 T02800121  RH  037%=      5-min Rain = 0
KES1 150441Z 31004KT 28/12 A2994 RMK A01 T02800121  RH  037%=      5-min Rain = 0
KES1 150442Z 31004KT 28/12 A2994 RMK A01 T02800120  RH  037%=      5-min Rain = 0
KES1 150443Z 31004KT 28/12 A2994 RMK A01 T02800121  RH  037%=      5-min Rain = 0
KES1 150444Z 31004KT 28/12 A2994 RMK A01 T02800121  RH  037%=      5-min Rain = 0
KES1 150445Z 30004KT 28/12 A2994 RMK A01 T02800122  RH  037%=      5-min Rain = 0
KES1 150446Z 30004KT 28/12 A2994 RMK A01 T02800122  RH  037%=      5-min Rain = 0
KES1 150447Z 30004KT 28/12 A2994 RMK A01 T02800121  RH  037%=      5-min Rain = 0
KES1 150448Z 31004KT 28/12 A2994 RMK A01 T02800121  RH  037%=      5-min Rain = 0
KES1 150449Z 31004KT 28/12 A2994 RMK A01 T02810121  RH  037%=      5-min Rain = 0
KES1 150450Z 31004KT 28/12 A2994 RMK A01 T02810122  RH  037%=      5-min Rain = 0
KES1 150451Z 31005KT 28/12 A2994 RMK A01 T02810122  RH  037%=      5-min Rain = 0
KES1 150452Z 30005KT 28/12 A2995 RMK A01 T02810122  RH  037%=      5-min Rain = 0
KES1 150453Z 31004KT 28/12 A2995 RMK A01 T02820122  RH  037%=      5-min Rain = 0
KES1 150454Z 31005KT 28/12 A2995 RMK A01 T02820122  RH  037%=      5-min Rain = 0
KES1 150455Z 31005KT 28/12 A2995 RMK A01 T02820122  RH  037%=      5-min Rain = 0
KES1 150456Z 31005KT 28/12 A2995 RMK A01 T02820122  RH  037%=      5-min Rain = 0
KES1 150457Z 31005KT 28/12 A2995 RMK A01 T02820123  RH  037%=      5-min Rain = 0
KES1 150458Z 31005KT 28/12 A2995 RMK A01 T02810123  RH  037%=      5-min Rain = 0
KES1 150459Z 32005KT 28/12 A2995 RMK A01 T02810123  RH  038%=      5-min Rain = 0

Page generated in 0.0788 seconds.